<?xml version="1.0" encoding="UTF-8" standalone="no" ?>
<gpx xmlns="http://www.topografix.com/GPX/1/1" xmlns:xsi="http://www.w3.org/2001/XMLSchema-instance" xsi:schemaLocation="http://www.topografix.com/GPX/1/1 http://www.topografix.com/GPX/1/1/gpx.xsd" version="1.1" creator="VisuGPX - https://www.visugpx.com">
  <metadata>
    <name>Boucle au départ de Rebigue</name>
  </metadata>
  <trk>
    <name><![CDATA[Boucle au départ de Rebigue_1]]></name>
    <trkseg>
      <trkpt lat="43.48885" lon="1.48718">
        <ele>273.6</ele>
        <time>2021-04-05T13:47:24Z</time>
      </trkpt>
      <trkpt lat="43.48883" lon="1.48716">
        <ele>297.4</ele>
        <time>2021-04-05T13:47:29Z</time>
      </trkpt>
      <trkpt lat="43.48882" lon="1.48714">
        <ele>303.2</ele>
        <time>2021-04-05T13:47:34Z</time>
      </trkpt>
      <trkpt lat="43.48881" lon="1.48712">
        <ele>313</ele>
        <time>2021-04-05T13:47:40Z</time>
      </trkpt>
      <trkpt lat="43.48879" lon="1.48713">
        <ele>305.9</ele>
        <time>2021-04-05T13:47:45Z</time>
      </trkpt>
      <trkpt lat="43.48879" lon="1.4871">
        <ele>305</ele>
        <time>2021-04-05T13:47:51Z</time>
      </trkpt>
      <trkpt lat="43.48878" lon="1.4871">
        <ele>303.7</ele>
        <time>2021-04-05T13:47:57Z</time>
      </trkpt>
      <trkpt lat="43.48878" lon="1.4871">
        <ele>299.3</ele>
        <time>2021-04-05T13:48:02Z</time>
      </trkpt>
      <trkpt lat="43.48878" lon="1.4871">
        <ele>297.1</ele>
        <time>2021-04-05T13:48:08Z</time>
      </trkpt>
      <trkpt lat="43.48878" lon="1.4871">
        <ele>295.4</ele>
        <time>2021-04-05T13:48:13Z</time>
      </trkpt>
      <trkpt lat="43.48878" lon="1.4871">
        <ele>292.6</ele>
        <time>2021-04-05T13:48:19Z</time>
      </trkpt>
      <trkpt lat="43.48878" lon="1.48712">
        <ele>291.5</ele>
        <time>2021-04-05T13:48:25Z</time>
      </trkpt>
      <trkpt lat="43.48878" lon="1.48712">
        <ele>292.6</ele>
        <time>2021-04-05T13:48:31Z</time>
      </trkpt>
      <trkpt lat="43.48878" lon="1.48712">
        <ele>291.7</ele>
        <time>2021-04-05T13:48:37Z</time>
      </trkpt>
      <trkpt lat="43.48878" lon="1.48712">
        <ele>292.6</ele>
        <time>2021-04-05T13:48:42Z</time>
      </trkpt>
      <trkpt lat="43.48878" lon="1.48712">
        <ele>293.1</ele>
        <time>2021-04-05T13:48:48Z</time>
      </trkpt>
      <trkpt lat="43.48878" lon="1.48712">
        <ele>293.5</ele>
        <time>2021-04-05T13:48:53Z</time>
      </trkpt>
      <trkpt lat="43.48878" lon="1.48712">
        <ele>294.4</ele>
        <time>2021-04-05T13:48:59Z</time>
      </trkpt>
      <trkpt lat="43.48878" lon="1.48712">
        <ele>294.4</ele>
        <time>2021-04-05T13:49:04Z</time>
      </trkpt>
      <trkpt lat="43.48878" lon="1.48712">
        <ele>294.7</ele>
        <time>2021-04-05T13:49:09Z</time>
      </trkpt>
      <trkpt lat="43.48883" lon="1.48707">
        <ele>294.4</ele>
        <time>2021-04-05T13:49:15Z</time>
      </trkpt>
      <trkpt lat="43.48881" lon="1.48708">
        <ele>296.1</ele>
        <time>2021-04-05T13:49:20Z</time>
      </trkpt>
      <trkpt lat="43.48881" lon="1.48707">
        <ele>297.3</ele>
        <time>2021-04-05T13:49:26Z</time>
      </trkpt>
      <trkpt lat="43.48878" lon="1.48708">
        <ele>297.5</ele>
        <time>2021-04-05T13:49:32Z</time>
      </trkpt>
      <trkpt lat="43.48871" lon="1.48716">
        <ele>299.1</ele>
        <time>2021-04-05T13:49:37Z</time>
      </trkpt>
      <trkpt lat="43.48874" lon="1.48723">
        <ele>299.8</ele>
        <time>2021-04-05T13:49:43Z</time>
      </trkpt>
      <trkpt lat="43.48876" lon="1.48722">
        <ele>299.9</ele>
        <time>2021-04-05T13:49:48Z</time>
      </trkpt>
      <trkpt lat="43.48875" lon="1.48721">
        <ele>299.8</ele>
        <time>2021-04-05T13:49:53Z</time>
      </trkpt>
      <trkpt lat="43.48874" lon="1.4872">
        <ele>300.2</ele>
        <time>2021-04-05T13:49:58Z</time>
      </trkpt>
      <trkpt lat="43.48874" lon="1.4872">
        <ele>299.3</ele>
        <time>2021-04-05T13:50:03Z</time>
      </trkpt>
      <trkpt lat="43.48874" lon="1.4872">
        <ele>300.4</ele>
        <time>2021-04-05T13:50:09Z</time>
      </trkpt>
      <trkpt lat="43.48874" lon="1.48721">
        <ele>299.9</ele>
        <time>2021-04-05T13:50:15Z</time>
      </trkpt>
      <trkpt lat="43.48874" lon="1.4872">
        <ele>300.1</ele>
        <time>2021-04-05T13:50:20Z</time>
      </trkpt>
      <trkpt lat="43.48874" lon="1.4872">
        <ele>299.6</ele>
        <time>2021-04-05T13:50:26Z</time>
      </trkpt>
      <trkpt lat="43.48874" lon="1.48721">
        <ele>300.1</ele>
        <time>2021-04-05T13:50:31Z</time>
      </trkpt>
      <trkpt lat="43.48873" lon="1.48722">
        <ele>299.8</ele>
        <time>2021-04-05T13:50:37Z</time>
      </trkpt>
      <trkpt lat="43.4887" lon="1.48728">
        <ele>300.3</ele>
        <time>2021-04-05T13:50:42Z</time>
      </trkpt>
      <trkpt lat="43.48885" lon="1.48727">
        <ele>300.1</ele>
        <time>2021-04-05T13:50:47Z</time>
      </trkpt>
      <trkpt lat="43.48895" lon="1.48714">
        <ele>299.3</ele>
        <time>2021-04-05T13:50:53Z</time>
      </trkpt>
      <trkpt lat="43.48889" lon="1.48735">
        <ele>300.5</ele>
        <time>2021-04-05T13:50:58Z</time>
      </trkpt>
      <trkpt lat="43.48866" lon="1.48774">
        <ele>302.8</ele>
        <time>2021-04-05T13:51:04Z</time>
      </trkpt>
      <trkpt lat="43.48846" lon="1.48804">
        <ele>304.5</ele>
        <time>2021-04-05T13:51:10Z</time>
      </trkpt>
      <trkpt lat="43.48815" lon="1.488">
        <ele>303.8</ele>
        <time>2021-04-05T13:51:16Z</time>
      </trkpt>
      <trkpt lat="43.48789" lon="1.48781">
        <ele>304.1</ele>
        <time>2021-04-05T13:51:21Z</time>
      </trkpt>
      <trkpt lat="43.48758" lon="1.48761">
        <ele>304</ele>
        <time>2021-04-05T13:51:27Z</time>
      </trkpt>
      <trkpt lat="43.48736" lon="1.48745">
        <ele>305.6</ele>
        <time>2021-04-05T13:51:32Z</time>
      </trkpt>
      <trkpt lat="43.48737" lon="1.487">
        <ele>307.1</ele>
        <time>2021-04-05T13:51:38Z</time>
      </trkpt>
      <trkpt lat="43.48736" lon="1.48651">
        <ele>308.6</ele>
        <time>2021-04-05T13:51:44Z</time>
      </trkpt>
      <trkpt lat="43.48729" lon="1.4861">
        <ele>309.5</ele>
        <time>2021-04-05T13:51:49Z</time>
      </trkpt>
      <trkpt lat="43.48708" lon="1.48569">
        <ele>310.8</ele>
        <time>2021-04-05T13:51:55Z</time>
      </trkpt>
      <trkpt lat="43.48697" lon="1.48542">
        <ele>312.1</ele>
        <time>2021-04-05T13:52:00Z</time>
      </trkpt>
      <trkpt lat="43.48714" lon="1.48509">
        <ele>314.7</ele>
        <time>2021-04-05T13:52:06Z</time>
      </trkpt>
      <trkpt lat="43.48731" lon="1.48482">
        <ele>316.7</ele>
        <time>2021-04-05T13:52:11Z</time>
      </trkpt>
      <trkpt lat="43.48748" lon="1.48457">
        <ele>318</ele>
        <time>2021-04-05T13:52:16Z</time>
      </trkpt>
      <trkpt lat="43.4876" lon="1.48425">
        <ele>319.2</ele>
        <time>2021-04-05T13:52:21Z</time>
      </trkpt>
      <trkpt lat="43.48774" lon="1.48383">
        <ele>320.7</ele>
        <time>2021-04-05T13:52:27Z</time>
      </trkpt>
      <trkpt lat="43.48789" lon="1.48339">
        <ele>319.9</ele>
        <time>2021-04-05T13:52:33Z</time>
      </trkpt>
      <trkpt lat="43.48804" lon="1.48295">
        <ele>319.3</ele>
        <time>2021-04-05T13:52:39Z</time>
      </trkpt>
      <trkpt lat="43.48817" lon="1.48258">
        <ele>318</ele>
        <time>2021-04-05T13:52:44Z</time>
      </trkpt>
      <trkpt lat="43.48833" lon="1.48212">
        <ele>317.8</ele>
        <time>2021-04-05T13:52:50Z</time>
      </trkpt>
      <trkpt lat="43.48853" lon="1.4818">
        <ele>317.6</ele>
        <time>2021-04-05T13:52:55Z</time>
      </trkpt>
      <trkpt lat="43.48879" lon="1.48152">
        <ele>317.2</ele>
        <time>2021-04-05T13:53:00Z</time>
      </trkpt>
      <trkpt lat="43.48908" lon="1.48122">
        <ele>316.9</ele>
        <time>2021-04-05T13:53:06Z</time>
      </trkpt>
      <trkpt lat="43.48928" lon="1.4809">
        <ele>315.7</ele>
        <time>2021-04-05T13:53:11Z</time>
      </trkpt>
      <trkpt lat="43.48942" lon="1.48045">
        <ele>314.9</ele>
        <time>2021-04-05T13:53:17Z</time>
      </trkpt>
      <trkpt lat="43.48954" lon="1.48008">
        <ele>314.6</ele>
        <time>2021-04-05T13:53:22Z</time>
      </trkpt>
      <trkpt lat="43.48971" lon="1.47965">
        <ele>313.5</ele>
        <time>2021-04-05T13:53:28Z</time>
      </trkpt>
      <trkpt lat="43.48992" lon="1.47939">
        <ele>313.2</ele>
        <time>2021-04-05T13:53:33Z</time>
      </trkpt>
      <trkpt lat="43.49024" lon="1.47916">
        <ele>311.5</ele>
        <time>2021-04-05T13:53:39Z</time>
      </trkpt>
      <trkpt lat="43.49034" lon="1.47874">
        <ele>310.2</ele>
        <time>2021-04-05T13:53:44Z</time>
      </trkpt>
      <trkpt lat="43.49043" lon="1.47825">
        <ele>308.7</ele>
        <time>2021-04-05T13:53:50Z</time>
      </trkpt>
      <trkpt lat="43.49051" lon="1.47784">
        <ele>307.5</ele>
        <time>2021-04-05T13:53:55Z</time>
      </trkpt>
      <trkpt lat="43.49067" lon="1.47736">
        <ele>305.9</ele>
        <time>2021-04-05T13:54:01Z</time>
      </trkpt>
      <trkpt lat="43.49063" lon="1.47689">
        <ele>302.6</ele>
        <time>2021-04-05T13:54:07Z</time>
      </trkpt>
      <trkpt lat="43.49053" lon="1.47655">
        <ele>300.3</ele>
        <time>2021-04-05T13:54:12Z</time>
      </trkpt>
      <trkpt lat="43.49066" lon="1.47599">
        <ele>297.3</ele>
        <time>2021-04-05T13:54:18Z</time>
      </trkpt>
      <trkpt lat="43.49057" lon="1.47559">
        <ele>293.9</ele>
        <time>2021-04-05T13:54:24Z</time>
      </trkpt>
      <trkpt lat="43.49018" lon="1.47546">
        <ele>288.7</ele>
        <time>2021-04-05T13:54:29Z</time>
      </trkpt>
      <trkpt lat="43.48994" lon="1.47515">
        <ele>284.6</ele>
        <time>2021-04-05T13:54:35Z</time>
      </trkpt>
      <trkpt lat="43.48979" lon="1.47469">
        <ele>282</ele>
        <time>2021-04-05T13:54:40Z</time>
      </trkpt>
      <trkpt lat="43.48985" lon="1.47418">
        <ele>281</ele>
        <time>2021-04-05T13:54:46Z</time>
      </trkpt>
      <trkpt lat="43.49007" lon="1.47373">
        <ele>278.3</ele>
        <time>2021-04-05T13:54:51Z</time>
      </trkpt>
      <trkpt lat="43.49038" lon="1.47328">
        <ele>275</ele>
        <time>2021-04-05T13:54:56Z</time>
      </trkpt>
      <trkpt lat="43.49075" lon="1.47308">
        <ele>274</ele>
        <time>2021-04-05T13:55:01Z</time>
      </trkpt>
      <trkpt lat="43.49116" lon="1.47295">
        <ele>273</ele>
        <time>2021-04-05T13:55:07Z</time>
      </trkpt>
      <trkpt lat="43.4915" lon="1.47272">
        <ele>273.7</ele>
        <time>2021-04-05T13:55:13Z</time>
      </trkpt>
      <trkpt lat="43.49173" lon="1.47234">
        <ele>273.1</ele>
        <time>2021-04-05T13:55:18Z</time>
      </trkpt>
      <trkpt lat="43.49204" lon="1.47191">
        <ele>271.1</ele>
        <time>2021-04-05T13:55:24Z</time>
      </trkpt>
      <trkpt lat="43.4923" lon="1.47158">
        <ele>270.2</ele>
        <time>2021-04-05T13:55:29Z</time>
      </trkpt>
      <trkpt lat="43.49262" lon="1.47114">
        <ele>266.2</ele>
        <time>2021-04-05T13:55:35Z</time>
      </trkpt>
      <trkpt lat="43.49291" lon="1.47077">
        <ele>265.5</ele>
        <time>2021-04-05T13:55:40Z</time>
      </trkpt>
      <trkpt lat="43.49319" lon="1.47052">
        <ele>265.4</ele>
        <time>2021-04-05T13:55:45Z</time>
      </trkpt>
      <trkpt lat="43.49342" lon="1.47022">
        <ele>265.4</ele>
        <time>2021-04-05T13:55:50Z</time>
      </trkpt>
      <trkpt lat="43.49374" lon="1.46986">
        <ele>263</ele>
        <time>2021-04-05T13:55:56Z</time>
      </trkpt>
      <trkpt lat="43.49406" lon="1.46948">
        <ele>261.3</ele>
        <time>2021-04-05T13:56:02Z</time>
      </trkpt>
      <trkpt lat="43.49437" lon="1.46909">
        <ele>261.1</ele>
        <time>2021-04-05T13:56:08Z</time>
      </trkpt>
      <trkpt lat="43.4947" lon="1.46873">
        <ele>259.6</ele>
        <time>2021-04-05T13:56:14Z</time>
      </trkpt>
      <trkpt lat="43.49505" lon="1.46835">
        <ele>256.6</ele>
        <time>2021-04-05T13:56:20Z</time>
      </trkpt>
      <trkpt lat="43.49542" lon="1.46792">
        <ele>253.9</ele>
        <time>2021-04-05T13:56:26Z</time>
      </trkpt>
      <trkpt lat="43.49574" lon="1.46754">
        <ele>251.6</ele>
        <time>2021-04-05T13:56:31Z</time>
      </trkpt>
      <trkpt lat="43.49605" lon="1.46728">
        <ele>249.6</ele>
        <time>2021-04-05T13:56:37Z</time>
      </trkpt>
      <trkpt lat="43.49628" lon="1.46705">
        <ele>248.6</ele>
        <time>2021-04-05T13:56:42Z</time>
      </trkpt>
      <trkpt lat="43.49662" lon="1.46688">
        <ele>248</ele>
        <time>2021-04-05T13:56:48Z</time>
      </trkpt>
      <trkpt lat="43.49697" lon="1.46664">
        <ele>245</ele>
        <time>2021-04-05T13:56:53Z</time>
      </trkpt>
      <trkpt lat="43.49732" lon="1.46626">
        <ele>241.9</ele>
        <time>2021-04-05T13:56:59Z</time>
      </trkpt>
      <trkpt lat="43.49764" lon="1.46594">
        <ele>240.2</ele>
        <time>2021-04-05T13:57:04Z</time>
      </trkpt>
      <trkpt lat="43.49799" lon="1.46554">
        <ele>238.4</ele>
        <time>2021-04-05T13:57:10Z</time>
      </trkpt>
      <trkpt lat="43.4982" lon="1.46534">
        <ele>236</ele>
        <time>2021-04-05T13:57:15Z</time>
      </trkpt>
      <trkpt lat="43.4984" lon="1.46513">
        <ele>235.4</ele>
        <time>2021-04-05T13:57:21Z</time>
      </trkpt>
      <trkpt lat="43.49872" lon="1.46512">
        <ele>237.5</ele>
        <time>2021-04-05T13:57:26Z</time>
      </trkpt>
      <trkpt lat="43.49903" lon="1.46499">
        <ele>239.7</ele>
        <time>2021-04-05T13:57:31Z</time>
      </trkpt>
      <trkpt lat="43.4993" lon="1.46494">
        <ele>243.4</ele>
        <time>2021-04-05T13:57:36Z</time>
      </trkpt>
      <trkpt lat="43.49955" lon="1.4649">
        <ele>247.9</ele>
        <time>2021-04-05T13:57:42Z</time>
      </trkpt>
      <trkpt lat="43.49973" lon="1.46485">
        <ele>251.9</ele>
        <time>2021-04-05T13:57:48Z</time>
      </trkpt>
      <trkpt lat="43.49999" lon="1.46485">
        <ele>255.5</ele>
        <time>2021-04-05T13:57:53Z</time>
      </trkpt>
      <trkpt lat="43.50019" lon="1.46486">
        <ele>259.7</ele>
        <time>2021-04-05T13:57:58Z</time>
      </trkpt>
      <trkpt lat="43.50037" lon="1.46491">
        <ele>263.5</ele>
        <time>2021-04-05T13:58:03Z</time>
      </trkpt>
      <trkpt lat="43.50057" lon="1.46494">
        <ele>266.3</ele>
        <time>2021-04-05T13:58:08Z</time>
      </trkpt>
      <trkpt lat="43.50083" lon="1.465">
        <ele>269.8</ele>
        <time>2021-04-05T13:58:14Z</time>
      </trkpt>
      <trkpt lat="43.50093" lon="1.46474">
        <ele>268.9</ele>
        <time>2021-04-05T13:58:20Z</time>
      </trkpt>
      <trkpt lat="43.50095" lon="1.46431">
        <ele>267.5</ele>
        <time>2021-04-05T13:58:25Z</time>
      </trkpt>
      <trkpt lat="43.50104" lon="1.46372">
        <ele>262.8</ele>
        <time>2021-04-05T13:58:31Z</time>
      </trkpt>
      <trkpt lat="43.50114" lon="1.4631">
        <ele>259</ele>
        <time>2021-04-05T13:58:37Z</time>
      </trkpt>
      <trkpt lat="43.50119" lon="1.46247">
        <ele>254.7</ele>
        <time>2021-04-05T13:58:43Z</time>
      </trkpt>
      <trkpt lat="43.50117" lon="1.46181">
        <ele>251.1</ele>
        <time>2021-04-05T13:58:49Z</time>
      </trkpt>
      <trkpt lat="43.50112" lon="1.46116">
        <ele>247.3</ele>
        <time>2021-04-05T13:58:55Z</time>
      </trkpt>
      <trkpt lat="43.50089" lon="1.46073">
        <ele>244.7</ele>
        <time>2021-04-05T13:59:00Z</time>
      </trkpt>
      <trkpt lat="43.50054" lon="1.46039">
        <ele>241.4</ele>
        <time>2021-04-05T13:59:06Z</time>
      </trkpt>
      <trkpt lat="43.50022" lon="1.46007">
        <ele>236.3</ele>
        <time>2021-04-05T13:59:12Z</time>
      </trkpt>
      <trkpt lat="43.50008" lon="1.45964">
        <ele>232.1</ele>
        <time>2021-04-05T13:59:17Z</time>
      </trkpt>
      <trkpt lat="43.49997" lon="1.45905">
        <ele>230</ele>
        <time>2021-04-05T13:59:23Z</time>
      </trkpt>
      <trkpt lat="43.49969" lon="1.45879">
        <ele>229.9</ele>
        <time>2021-04-05T13:59:29Z</time>
      </trkpt>
      <trkpt lat="43.49962" lon="1.45842">
        <ele>230.3</ele>
        <time>2021-04-05T13:59:35Z</time>
      </trkpt>
      <trkpt lat="43.49972" lon="1.45789">
        <ele>230.8</ele>
        <time>2021-04-05T13:59:41Z</time>
      </trkpt>
      <trkpt lat="43.49968" lon="1.45737">
        <ele>229.3</ele>
        <time>2021-04-05T13:59:47Z</time>
      </trkpt>
      <trkpt lat="43.49962" lon="1.45685">
        <ele>229</ele>
        <time>2021-04-05T13:59:53Z</time>
      </trkpt>
      <trkpt lat="43.49957" lon="1.45643">
        <ele>228.4</ele>
        <time>2021-04-05T13:59:58Z</time>
      </trkpt>
      <trkpt lat="43.49951" lon="1.45595">
        <ele>228.1</ele>
        <time>2021-04-05T14:00:04Z</time>
      </trkpt>
      <trkpt lat="43.4995" lon="1.4556">
        <ele>228.6</ele>
        <time>2021-04-05T14:00:10Z</time>
      </trkpt>
      <trkpt lat="43.49979" lon="1.45552">
        <ele>229.3</ele>
        <time>2021-04-05T14:00:16Z</time>
      </trkpt>
      <trkpt lat="43.50009" lon="1.4553">
        <ele>231.1</ele>
        <time>2021-04-05T14:00:22Z</time>
      </trkpt>
      <trkpt lat="43.5002" lon="1.45492">
        <ele>229.8</ele>
        <time>2021-04-05T14:00:27Z</time>
      </trkpt>
      <trkpt lat="43.50033" lon="1.45452">
        <ele>229.4</ele>
        <time>2021-04-05T14:00:32Z</time>
      </trkpt>
      <trkpt lat="43.50048" lon="1.45404">
        <ele>229.4</ele>
        <time>2021-04-05T14:00:38Z</time>
      </trkpt>
      <trkpt lat="43.50061" lon="1.45362">
        <ele>229.1</ele>
        <time>2021-04-05T14:00:43Z</time>
      </trkpt>
      <trkpt lat="43.50075" lon="1.4532">
        <ele>228.2</ele>
        <time>2021-04-05T14:00:48Z</time>
      </trkpt>
      <trkpt lat="43.50092" lon="1.4527">
        <ele>228</ele>
        <time>2021-04-05T14:00:54Z</time>
      </trkpt>
      <trkpt lat="43.501" lon="1.45224">
        <ele>225.8</ele>
        <time>2021-04-05T14:00:59Z</time>
      </trkpt>
      <trkpt lat="43.50097" lon="1.45168">
        <ele>225.2</ele>
        <time>2021-04-05T14:01:05Z</time>
      </trkpt>
      <trkpt lat="43.50094" lon="1.45125">
        <ele>225.3</ele>
        <time>2021-04-05T14:01:10Z</time>
      </trkpt>
      <trkpt lat="43.50092" lon="1.4507">
        <ele>224.5</ele>
        <time>2021-04-05T14:01:16Z</time>
      </trkpt>
      <trkpt lat="43.5009" lon="1.45022">
        <ele>224.5</ele>
        <time>2021-04-05T14:01:21Z</time>
      </trkpt>
      <trkpt lat="43.50087" lon="1.44968">
        <ele>222.8</ele>
        <time>2021-04-05T14:01:27Z</time>
      </trkpt>
      <trkpt lat="43.50087" lon="1.44928">
        <ele>222.5</ele>
        <time>2021-04-05T14:01:32Z</time>
      </trkpt>
      <trkpt lat="43.50091" lon="1.44874">
        <ele>222.5</ele>
        <time>2021-04-05T14:01:38Z</time>
      </trkpt>
      <trkpt lat="43.50095" lon="1.44823">
        <ele>223.1</ele>
        <time>2021-04-05T14:01:44Z</time>
      </trkpt>
      <trkpt lat="43.50101" lon="1.44771">
        <ele>222.9</ele>
        <time>2021-04-05T14:01:50Z</time>
      </trkpt>
      <trkpt lat="43.50106" lon="1.44718">
        <ele>222.4</ele>
        <time>2021-04-05T14:01:56Z</time>
      </trkpt>
      <trkpt lat="43.50111" lon="1.44665">
        <ele>222.2</ele>
        <time>2021-04-05T14:02:02Z</time>
      </trkpt>
      <trkpt lat="43.50117" lon="1.44622">
        <ele>222</ele>
        <time>2021-04-05T14:02:07Z</time>
      </trkpt>
      <trkpt lat="43.50124" lon="1.44569">
        <ele>221.2</ele>
        <time>2021-04-05T14:02:13Z</time>
      </trkpt>
      <trkpt lat="43.50132" lon="1.4452">
        <ele>221.9</ele>
        <time>2021-04-05T14:02:19Z</time>
      </trkpt>
      <trkpt lat="43.50136" lon="1.44479">
        <ele>221.9</ele>
        <time>2021-04-05T14:02:24Z</time>
      </trkpt>
      <trkpt lat="43.50141" lon="1.44437">
        <ele>220.8</ele>
        <time>2021-04-05T14:02:29Z</time>
      </trkpt>
      <trkpt lat="43.50146" lon="1.44389">
        <ele>220.5</ele>
        <time>2021-04-05T14:02:35Z</time>
      </trkpt>
      <trkpt lat="43.50149" lon="1.44344">
        <ele>221.1</ele>
        <time>2021-04-05T14:02:41Z</time>
      </trkpt>
      <trkpt lat="43.5015" lon="1.44309">
        <ele>219.9</ele>
        <time>2021-04-05T14:02:46Z</time>
      </trkpt>
      <trkpt lat="43.50152" lon="1.44264">
        <ele>218.6</ele>
        <time>2021-04-05T14:02:52Z</time>
      </trkpt>
      <trkpt lat="43.50152" lon="1.44229">
        <ele>217.5</ele>
        <time>2021-04-05T14:02:57Z</time>
      </trkpt>
      <trkpt lat="43.50152" lon="1.44198">
        <ele>218.7</ele>
        <time>2021-04-05T14:03:03Z</time>
      </trkpt>
      <trkpt lat="43.50153" lon="1.44152">
        <ele>218.3</ele>
        <time>2021-04-05T14:03:09Z</time>
      </trkpt>
      <trkpt lat="43.50154" lon="1.44121">
        <ele>218.7</ele>
        <time>2021-04-05T14:03:15Z</time>
      </trkpt>
      <trkpt lat="43.50157" lon="1.44088">
        <ele>217.5</ele>
        <time>2021-04-05T14:03:20Z</time>
      </trkpt>
      <trkpt lat="43.50157" lon="1.44055">
        <ele>216.7</ele>
        <time>2021-04-05T14:03:25Z</time>
      </trkpt>
      <trkpt lat="43.50159" lon="1.44016">
        <ele>216.6</ele>
        <time>2021-04-05T14:03:30Z</time>
      </trkpt>
      <trkpt lat="43.50162" lon="1.43968">
        <ele>215.6</ele>
        <time>2021-04-05T14:03:36Z</time>
      </trkpt>
      <trkpt lat="43.50165" lon="1.43926">
        <ele>216</ele>
        <time>2021-04-05T14:03:41Z</time>
      </trkpt>
      <trkpt lat="43.50169" lon="1.43877">
        <ele>216.3</ele>
        <time>2021-04-05T14:03:47Z</time>
      </trkpt>
      <trkpt lat="43.50174" lon="1.43828">
        <ele>215.9</ele>
        <time>2021-04-05T14:03:53Z</time>
      </trkpt>
      <trkpt lat="43.50178" lon="1.43788">
        <ele>215.5</ele>
        <time>2021-04-05T14:03:58Z</time>
      </trkpt>
      <trkpt lat="43.50186" lon="1.43747">
        <ele>214.8</ele>
        <time>2021-04-05T14:04:03Z</time>
      </trkpt>
      <trkpt lat="43.50193" lon="1.43706">
        <ele>214.8</ele>
        <time>2021-04-05T14:04:08Z</time>
      </trkpt>
      <trkpt lat="43.502" lon="1.43665">
        <ele>215.4</ele>
        <time>2021-04-05T14:04:13Z</time>
      </trkpt>
      <trkpt lat="43.50208" lon="1.43619">
        <ele>215.2</ele>
        <time>2021-04-05T14:04:19Z</time>
      </trkpt>
      <trkpt lat="43.50218" lon="1.43578">
        <ele>215.7</ele>
        <time>2021-04-05T14:04:25Z</time>
      </trkpt>
      <trkpt lat="43.50205" lon="1.43556">
        <ele>215.4</ele>
        <time>2021-04-05T14:04:31Z</time>
      </trkpt>
      <trkpt lat="43.50171" lon="1.43534">
        <ele>214.2</ele>
        <time>2021-04-05T14:04:37Z</time>
      </trkpt>
      <trkpt lat="43.50155" lon="1.43519">
        <ele>215.6</ele>
        <time>2021-04-05T14:04:43Z</time>
      </trkpt>
      <trkpt lat="43.50132" lon="1.43506">
        <ele>214.9</ele>
        <time>2021-04-05T14:04:48Z</time>
      </trkpt>
      <trkpt lat="43.50101" lon="1.43498">
        <ele>217.1</ele>
        <time>2021-04-05T14:04:54Z</time>
      </trkpt>
      <trkpt lat="43.50071" lon="1.43484">
        <ele>219.1</ele>
        <time>2021-04-05T14:05:00Z</time>
      </trkpt>
      <trkpt lat="43.50041" lon="1.43473">
        <ele>223.1</ele>
        <time>2021-04-05T14:05:06Z</time>
      </trkpt>
      <trkpt lat="43.50015" lon="1.43462">
        <ele>225</ele>
        <time>2021-04-05T14:05:11Z</time>
      </trkpt>
      <trkpt lat="43.49983" lon="1.4345">
        <ele>227.6</ele>
        <time>2021-04-05T14:05:17Z</time>
      </trkpt>
      <trkpt lat="43.49952" lon="1.43438">
        <ele>230.3</ele>
        <time>2021-04-05T14:05:23Z</time>
      </trkpt>
      <trkpt lat="43.49926" lon="1.43427">
        <ele>232.3</ele>
        <time>2021-04-05T14:05:28Z</time>
      </trkpt>
      <trkpt lat="43.49895" lon="1.43416">
        <ele>237.3</ele>
        <time>2021-04-05T14:05:34Z</time>
      </trkpt>
      <trkpt lat="43.49866" lon="1.43406">
        <ele>240.4</ele>
        <time>2021-04-05T14:05:40Z</time>
      </trkpt>
      <trkpt lat="43.49843" lon="1.43405">
        <ele>243.2</ele>
        <time>2021-04-05T14:05:46Z</time>
      </trkpt>
      <trkpt lat="43.49826" lon="1.4345">
        <ele>246.9</ele>
        <time>2021-04-05T14:05:52Z</time>
      </trkpt>
      <trkpt lat="43.49802" lon="1.43468">
        <ele>250.6</ele>
        <time>2021-04-05T14:05:58Z</time>
      </trkpt>
      <trkpt lat="43.4979" lon="1.4348">
        <ele>250.8</ele>
        <time>2021-04-05T14:06:04Z</time>
      </trkpt>
      <trkpt lat="43.49792" lon="1.43478">
        <ele>251.4</ele>
        <time>2021-04-05T14:06:10Z</time>
      </trkpt>
      <trkpt lat="43.49792" lon="1.43478">
        <ele>251.7</ele>
        <time>2021-04-05T14:06:15Z</time>
      </trkpt>
      <trkpt lat="43.49793" lon="1.43477">
        <ele>252.5</ele>
        <time>2021-04-05T14:06:20Z</time>
      </trkpt>
      <trkpt lat="43.49793" lon="1.43477">
        <ele>251.8</ele>
        <time>2021-04-05T14:06:25Z</time>
      </trkpt>
      <trkpt lat="43.49793" lon="1.43477">
        <ele>251.7</ele>
        <time>2021-04-05T14:06:31Z</time>
      </trkpt>
      <trkpt lat="43.49793" lon="1.43477">
        <ele>252.7</ele>
        <time>2021-04-05T14:06:36Z</time>
      </trkpt>
      <trkpt lat="43.49793" lon="1.43477">
        <ele>251.3</ele>
        <time>2021-04-05T14:06:41Z</time>
      </trkpt>
      <trkpt lat="43.49793" lon="1.43477">
        <ele>252.3</ele>
        <time>2021-04-05T14:06:47Z</time>
      </trkpt>
      <trkpt lat="43.49793" lon="1.43477">
        <ele>251.9</ele>
        <time>2021-04-05T14:06:53Z</time>
      </trkpt>
      <trkpt lat="43.49788" lon="1.43485">
        <ele>252.1</ele>
        <time>2021-04-05T14:06:58Z</time>
      </trkpt>
      <trkpt lat="43.49773" lon="1.43494">
        <ele>253</ele>
        <time>2021-04-05T14:07:03Z</time>
      </trkpt>
      <trkpt lat="43.49759" lon="1.43499">
        <ele>250.5</ele>
        <time>2021-04-05T14:07:09Z</time>
      </trkpt>
      <trkpt lat="43.49737" lon="1.4351">
        <ele>247.6</ele>
        <time>2021-04-05T14:07:14Z</time>
      </trkpt>
      <trkpt lat="43.49709" lon="1.43524">
        <ele>244.9</ele>
        <time>2021-04-05T14:07:19Z</time>
      </trkpt>
      <trkpt lat="43.49683" lon="1.43531">
        <ele>242.7</ele>
        <time>2021-04-05T14:07:24Z</time>
      </trkpt>
      <trkpt lat="43.49649" lon="1.43537">
        <ele>236.4</ele>
        <time>2021-04-05T14:07:30Z</time>
      </trkpt>
      <trkpt lat="43.496" lon="1.43543">
        <ele>229.2</ele>
        <time>2021-04-05T14:07:35Z</time>
      </trkpt>
      <trkpt lat="43.49524" lon="1.43542">
        <ele>216.3</ele>
        <time>2021-04-05T14:07:41Z</time>
      </trkpt>
      <trkpt lat="43.49479" lon="1.43531">
        <ele>212.5</ele>
        <time>2021-04-05T14:07:46Z</time>
      </trkpt>
      <trkpt lat="43.49456" lon="1.43517">
        <ele>211.7</ele>
        <time>2021-04-05T14:07:52Z</time>
      </trkpt>
      <trkpt lat="43.49437" lon="1.43527">
        <ele>212.8</ele>
        <time>2021-04-05T14:07:57Z</time>
      </trkpt>
      <trkpt lat="43.49436" lon="1.43528">
        <ele>212.4</ele>
        <time>2021-04-05T14:08:03Z</time>
      </trkpt>
      <trkpt lat="43.49436" lon="1.43528">
        <ele>213</ele>
        <time>2021-04-05T14:08:09Z</time>
      </trkpt>
      <trkpt lat="43.49437" lon="1.43528">
        <ele>212.9</ele>
        <time>2021-04-05T14:08:15Z</time>
      </trkpt>
      <trkpt lat="43.49437" lon="1.43528">
        <ele>213</ele>
        <time>2021-04-05T14:08:21Z</time>
      </trkpt>
      <trkpt lat="43.49437" lon="1.43528">
        <ele>213.8</ele>
        <time>2021-04-05T14:08:26Z</time>
      </trkpt>
      <trkpt lat="43.49437" lon="1.43528">
        <ele>213.5</ele>
        <time>2021-04-05T14:08:32Z</time>
      </trkpt>
      <trkpt lat="43.49437" lon="1.43528">
        <ele>214.3</ele>
        <time>2021-04-05T14:08:38Z</time>
      </trkpt>
      <trkpt lat="43.49437" lon="1.43528">
        <ele>214.4</ele>
        <time>2021-04-05T14:08:43Z</time>
      </trkpt>
      <trkpt lat="43.49437" lon="1.43528">
        <ele>214.1</ele>
        <time>2021-04-05T14:08:49Z</time>
      </trkpt>
      <trkpt lat="43.49437" lon="1.43528">
        <ele>213.9</ele>
        <time>2021-04-05T14:08:54Z</time>
      </trkpt>
      <trkpt lat="43.49437" lon="1.43528">
        <ele>214</ele>
        <time>2021-04-05T14:09:00Z</time>
      </trkpt>
      <trkpt lat="43.49437" lon="1.43528">
        <ele>214.1</ele>
        <time>2021-04-05T14:09:05Z</time>
      </trkpt>
      <trkpt lat="43.49437" lon="1.43528">
        <ele>214.7</ele>
        <time>2021-04-05T14:09:10Z</time>
      </trkpt>
      <trkpt lat="43.49432" lon="1.43527">
        <ele>214.6</ele>
        <time>2021-04-05T14:09:15Z</time>
      </trkpt>
      <trkpt lat="43.49418" lon="1.4352">
        <ele>211.4</ele>
        <time>2021-04-05T14:09:20Z</time>
      </trkpt>
      <trkpt lat="43.49404" lon="1.43513">
        <ele>211.7</ele>
        <time>2021-04-05T14:09:26Z</time>
      </trkpt>
      <trkpt lat="43.49391" lon="1.43507">
        <ele>211.4</ele>
        <time>2021-04-05T14:09:31Z</time>
      </trkpt>
      <trkpt lat="43.49368" lon="1.43476">
        <ele>213.8</ele>
        <time>2021-04-05T14:09:36Z</time>
      </trkpt>
      <trkpt lat="43.49348" lon="1.4344">
        <ele>215.2</ele>
        <time>2021-04-05T14:09:42Z</time>
      </trkpt>
      <trkpt lat="43.49326" lon="1.43402">
        <ele>218.5</ele>
        <time>2021-04-05T14:09:48Z</time>
      </trkpt>
      <trkpt lat="43.49311" lon="1.43373">
        <ele>220.9</ele>
        <time>2021-04-05T14:09:53Z</time>
      </trkpt>
      <trkpt lat="43.49298" lon="1.43349">
        <ele>223.1</ele>
        <time>2021-04-05T14:09:58Z</time>
      </trkpt>
      <trkpt lat="43.49288" lon="1.43328">
        <ele>224.5</ele>
        <time>2021-04-05T14:10:03Z</time>
      </trkpt>
      <trkpt lat="43.49271" lon="1.4333">
        <ele>225.7</ele>
        <time>2021-04-05T14:10:09Z</time>
      </trkpt>
      <trkpt lat="43.49252" lon="1.43323">
        <ele>227.1</ele>
        <time>2021-04-05T14:10:14Z</time>
      </trkpt>
      <trkpt lat="43.49232" lon="1.43314">
        <ele>227.4</ele>
        <time>2021-04-05T14:10:20Z</time>
      </trkpt>
      <trkpt lat="43.49227" lon="1.43292">
        <ele>228.7</ele>
        <time>2021-04-05T14:10:26Z</time>
      </trkpt>
      <trkpt lat="43.49231" lon="1.43257">
        <ele>231.3</ele>
        <time>2021-04-05T14:10:31Z</time>
      </trkpt>
      <trkpt lat="43.49232" lon="1.43228">
        <ele>235.9</ele>
        <time>2021-04-05T14:10:36Z</time>
      </trkpt>
      <trkpt lat="43.49233" lon="1.43193">
        <ele>239.2</ele>
        <time>2021-04-05T14:10:42Z</time>
      </trkpt>
      <trkpt lat="43.49234" lon="1.43165">
        <ele>243</ele>
        <time>2021-04-05T14:10:47Z</time>
      </trkpt>
      <trkpt lat="43.49233" lon="1.43134">
        <ele>245.9</ele>
        <time>2021-04-05T14:10:53Z</time>
      </trkpt>
      <trkpt lat="43.49233" lon="1.43109">
        <ele>250.3</ele>
        <time>2021-04-05T14:10:58Z</time>
      </trkpt>
      <trkpt lat="43.49232" lon="1.4308">
        <ele>252.8</ele>
        <time>2021-04-05T14:11:04Z</time>
      </trkpt>
      <trkpt lat="43.49234" lon="1.43052">
        <ele>257.7</ele>
        <time>2021-04-05T14:11:09Z</time>
      </trkpt>
      <trkpt lat="43.49241" lon="1.43027">
        <ele>260.7</ele>
        <time>2021-04-05T14:11:15Z</time>
      </trkpt>
      <trkpt lat="43.49252" lon="1.43007">
        <ele>262.3</ele>
        <time>2021-04-05T14:11:20Z</time>
      </trkpt>
      <trkpt lat="43.4926" lon="1.42981">
        <ele>264</ele>
        <time>2021-04-05T14:11:25Z</time>
      </trkpt>
      <trkpt lat="43.49267" lon="1.4295">
        <ele>266.4</ele>
        <time>2021-04-05T14:11:30Z</time>
      </trkpt>
      <trkpt lat="43.4927" lon="1.42917">
        <ele>268.5</ele>
        <time>2021-04-05T14:11:36Z</time>
      </trkpt>
      <trkpt lat="43.49273" lon="1.42885">
        <ele>270.8</ele>
        <time>2021-04-05T14:11:42Z</time>
      </trkpt>
      <trkpt lat="43.49274" lon="1.42856">
        <ele>271.6</ele>
        <time>2021-04-05T14:11:47Z</time>
      </trkpt>
      <trkpt lat="43.49277" lon="1.42831">
        <ele>273.1</ele>
        <time>2021-04-05T14:11:52Z</time>
      </trkpt>
      <trkpt lat="43.49279" lon="1.42807">
        <ele>273.6</ele>
        <time>2021-04-05T14:11:57Z</time>
      </trkpt>
      <trkpt lat="43.49282" lon="1.42776">
        <ele>275.2</ele>
        <time>2021-04-05T14:12:03Z</time>
      </trkpt>
      <trkpt lat="43.4929" lon="1.42751">
        <ele>274.5</ele>
        <time>2021-04-05T14:12:08Z</time>
      </trkpt>
      <trkpt lat="43.49302" lon="1.42713">
        <ele>274.7</ele>
        <time>2021-04-05T14:12:13Z</time>
      </trkpt>
      <trkpt lat="43.49311" lon="1.42677">
        <ele>273.4</ele>
        <time>2021-04-05T14:12:18Z</time>
      </trkpt>
      <trkpt lat="43.49322" lon="1.42645">
        <ele>273.6</ele>
        <time>2021-04-05T14:12:23Z</time>
      </trkpt>
      <trkpt lat="43.4933" lon="1.42625">
        <ele>272.9</ele>
        <time>2021-04-05T14:12:29Z</time>
      </trkpt>
      <trkpt lat="43.49347" lon="1.42599">
        <ele>271.6</ele>
        <time>2021-04-05T14:12:34Z</time>
      </trkpt>
      <trkpt lat="43.49364" lon="1.42568">
        <ele>268.7</ele>
        <time>2021-04-05T14:12:39Z</time>
      </trkpt>
      <trkpt lat="43.49395" lon="1.42526">
        <ele>263.4</ele>
        <time>2021-04-05T14:12:45Z</time>
      </trkpt>
      <trkpt lat="43.49412" lon="1.42502">
        <ele>259.3</ele>
        <time>2021-04-05T14:12:50Z</time>
      </trkpt>
      <trkpt lat="43.49416" lon="1.42483">
        <ele>260</ele>
        <time>2021-04-05T14:12:55Z</time>
      </trkpt>
      <trkpt lat="43.49397" lon="1.42467">
        <ele>263.1</ele>
        <time>2021-04-05T14:13:01Z</time>
      </trkpt>
      <trkpt lat="43.49383" lon="1.4244">
        <ele>265.7</ele>
        <time>2021-04-05T14:13:06Z</time>
      </trkpt>
      <trkpt lat="43.49381" lon="1.42409">
        <ele>268.1</ele>
        <time>2021-04-05T14:13:11Z</time>
      </trkpt>
      <trkpt lat="43.49386" lon="1.42379">
        <ele>270.2</ele>
        <time>2021-04-05T14:13:16Z</time>
      </trkpt>
      <trkpt lat="43.49394" lon="1.4235">
        <ele>271</ele>
        <time>2021-04-05T14:13:22Z</time>
      </trkpt>
      <trkpt lat="43.49402" lon="1.42322">
        <ele>273.1</ele>
        <time>2021-04-05T14:13:27Z</time>
      </trkpt>
      <trkpt lat="43.4941" lon="1.42294">
        <ele>274.2</ele>
        <time>2021-04-05T14:13:32Z</time>
      </trkpt>
      <trkpt lat="43.49415" lon="1.42262">
        <ele>275.7</ele>
        <time>2021-04-05T14:13:38Z</time>
      </trkpt>
      <trkpt lat="43.49417" lon="1.42234">
        <ele>276.3</ele>
        <time>2021-04-05T14:13:43Z</time>
      </trkpt>
      <trkpt lat="43.49423" lon="1.42203">
        <ele>277.6</ele>
        <time>2021-04-05T14:13:49Z</time>
      </trkpt>
      <trkpt lat="43.49427" lon="1.42173">
        <ele>279.5</ele>
        <time>2021-04-05T14:13:54Z</time>
      </trkpt>
      <trkpt lat="43.49432" lon="1.42142">
        <ele>281.6</ele>
        <time>2021-04-05T14:13:59Z</time>
      </trkpt>
      <trkpt lat="43.49438" lon="1.42112">
        <ele>283.4</ele>
        <time>2021-04-05T14:14:05Z</time>
      </trkpt>
      <trkpt lat="43.49441" lon="1.42092">
        <ele>286</ele>
        <time>2021-04-05T14:14:10Z</time>
      </trkpt>
      <trkpt lat="43.49431" lon="1.42091">
        <ele>286.1</ele>
        <time>2021-04-05T14:14:15Z</time>
      </trkpt>
      <trkpt lat="43.49419" lon="1.42085">
        <ele>287</ele>
        <time>2021-04-05T14:14:21Z</time>
      </trkpt>
      <trkpt lat="43.49406" lon="1.42079">
        <ele>287.8</ele>
        <time>2021-04-05T14:14:27Z</time>
      </trkpt>
      <trkpt lat="43.49405" lon="1.42076">
        <ele>287.4</ele>
        <time>2021-04-05T14:14:32Z</time>
      </trkpt>
      <trkpt lat="43.49399" lon="1.4207">
        <ele>287.4</ele>
        <time>2021-04-05T14:14:38Z</time>
      </trkpt>
      <trkpt lat="43.494" lon="1.42071">
        <ele>287.5</ele>
        <time>2021-04-05T14:14:44Z</time>
      </trkpt>
      <trkpt lat="43.494" lon="1.42071">
        <ele>288</ele>
        <time>2021-04-05T14:14:49Z</time>
      </trkpt>
      <trkpt lat="43.494" lon="1.42071">
        <ele>287.7</ele>
        <time>2021-04-05T14:14:54Z</time>
      </trkpt>
      <trkpt lat="43.494" lon="1.42071">
        <ele>288.2</ele>
        <time>2021-04-05T14:15:00Z</time>
      </trkpt>
      <trkpt lat="43.494" lon="1.42071">
        <ele>287.9</ele>
        <time>2021-04-05T14:15:05Z</time>
      </trkpt>
      <trkpt lat="43.494" lon="1.42071">
        <ele>288.4</ele>
        <time>2021-04-05T14:15:11Z</time>
      </trkpt>
      <trkpt lat="43.494" lon="1.42071">
        <ele>288.5</ele>
        <time>2021-04-05T14:15:17Z</time>
      </trkpt>
      <trkpt lat="43.494" lon="1.42071">
        <ele>288</ele>
        <time>2021-04-05T14:15:23Z</time>
      </trkpt>
      <trkpt lat="43.494" lon="1.42071">
        <ele>288.5</ele>
        <time>2021-04-05T14:15:29Z</time>
      </trkpt>
      <trkpt lat="43.494" lon="1.42071">
        <ele>288.8</ele>
        <time>2021-04-05T14:15:34Z</time>
      </trkpt>
      <trkpt lat="43.494" lon="1.42071">
        <ele>288.4</ele>
        <time>2021-04-05T14:15:39Z</time>
      </trkpt>
      <trkpt lat="43.494" lon="1.42071">
        <ele>289.1</ele>
        <time>2021-04-05T14:15:44Z</time>
      </trkpt>
      <trkpt lat="43.494" lon="1.42071">
        <ele>288.8</ele>
        <time>2021-04-05T14:15:49Z</time>
      </trkpt>
      <trkpt lat="43.494" lon="1.42071">
        <ele>288.8</ele>
        <time>2021-04-05T14:15:54Z</time>
      </trkpt>
      <trkpt lat="43.49391" lon="1.42062">
        <ele>288.7</ele>
        <time>2021-04-05T14:15:59Z</time>
      </trkpt>
      <trkpt lat="43.49384" lon="1.4206">
        <ele>290.8</ele>
        <time>2021-04-05T14:16:05Z</time>
      </trkpt>
      <trkpt lat="43.49354" lon="1.42038">
        <ele>293</ele>
        <time>2021-04-05T14:16:11Z</time>
      </trkpt>
      <trkpt lat="43.49326" lon="1.42009">
        <ele>295.6</ele>
        <time>2021-04-05T14:16:17Z</time>
      </trkpt>
      <trkpt lat="43.49308" lon="1.41987">
        <ele>296.8</ele>
        <time>2021-04-05T14:16:22Z</time>
      </trkpt>
      <trkpt lat="43.49287" lon="1.41961">
        <ele>298.9</ele>
        <time>2021-04-05T14:16:28Z</time>
      </trkpt>
      <trkpt lat="43.49269" lon="1.41932">
        <ele>301</ele>
        <time>2021-04-05T14:16:34Z</time>
      </trkpt>
      <trkpt lat="43.49256" lon="1.41897">
        <ele>302.3</ele>
        <time>2021-04-05T14:16:40Z</time>
      </trkpt>
      <trkpt lat="43.4924" lon="1.41871">
        <ele>301.3</ele>
        <time>2021-04-05T14:16:45Z</time>
      </trkpt>
      <trkpt lat="43.4921" lon="1.41857">
        <ele>301.9</ele>
        <time>2021-04-05T14:16:51Z</time>
      </trkpt>
      <trkpt lat="43.49179" lon="1.4186">
        <ele>303.1</ele>
        <time>2021-04-05T14:16:57Z</time>
      </trkpt>
      <trkpt lat="43.49153" lon="1.41863">
        <ele>304.8</ele>
        <time>2021-04-05T14:17:02Z</time>
      </trkpt>
      <trkpt lat="43.49127" lon="1.41866">
        <ele>306.8</ele>
        <time>2021-04-05T14:17:07Z</time>
      </trkpt>
      <trkpt lat="43.49093" lon="1.4187">
        <ele>310.1</ele>
        <time>2021-04-05T14:17:13Z</time>
      </trkpt>
      <trkpt lat="43.49066" lon="1.41874">
        <ele>312.3</ele>
        <time>2021-04-05T14:17:18Z</time>
      </trkpt>
      <trkpt lat="43.49035" lon="1.41878">
        <ele>314.8</ele>
        <time>2021-04-05T14:17:24Z</time>
      </trkpt>
      <trkpt lat="43.4901" lon="1.4188">
        <ele>317</ele>
        <time>2021-04-05T14:17:29Z</time>
      </trkpt>
      <trkpt lat="43.48985" lon="1.41882">
        <ele>318.7</ele>
        <time>2021-04-05T14:17:34Z</time>
      </trkpt>
      <trkpt lat="43.48962" lon="1.41891">
        <ele>319.4</ele>
        <time>2021-04-05T14:17:39Z</time>
      </trkpt>
      <trkpt lat="43.4894" lon="1.41924">
        <ele>319.4</ele>
        <time>2021-04-05T14:17:45Z</time>
      </trkpt>
      <trkpt lat="43.48919" lon="1.4196">
        <ele>319.3</ele>
        <time>2021-04-05T14:17:51Z</time>
      </trkpt>
      <trkpt lat="43.48897" lon="1.41999">
        <ele>318.1</ele>
        <time>2021-04-05T14:17:57Z</time>
      </trkpt>
      <trkpt lat="43.48873" lon="1.42042">
        <ele>317.2</ele>
        <time>2021-04-05T14:18:03Z</time>
      </trkpt>
      <trkpt lat="43.48844" lon="1.42094">
        <ele>313.4</ele>
        <time>2021-04-05T14:18:09Z</time>
      </trkpt>
      <trkpt lat="43.48809" lon="1.42154">
        <ele>310.4</ele>
        <time>2021-04-05T14:18:15Z</time>
      </trkpt>
      <trkpt lat="43.48778" lon="1.42201">
        <ele>308.6</ele>
        <time>2021-04-05T14:18:20Z</time>
      </trkpt>
      <trkpt lat="43.48743" lon="1.42252">
        <ele>309</ele>
        <time>2021-04-05T14:18:26Z</time>
      </trkpt>
      <trkpt lat="43.48714" lon="1.42294">
        <ele>308.5</ele>
        <time>2021-04-05T14:18:32Z</time>
      </trkpt>
      <trkpt lat="43.48687" lon="1.4233">
        <ele>309.5</ele>
        <time>2021-04-05T14:18:38Z</time>
      </trkpt>
      <trkpt lat="43.48665" lon="1.42358">
        <ele>310.2</ele>
        <time>2021-04-05T14:18:43Z</time>
      </trkpt>
      <trkpt lat="43.48643" lon="1.42386">
        <ele>310.7</ele>
        <time>2021-04-05T14:18:48Z</time>
      </trkpt>
      <trkpt lat="43.48617" lon="1.42419">
        <ele>311.2</ele>
        <time>2021-04-05T14:18:54Z</time>
      </trkpt>
      <trkpt lat="43.48599" lon="1.42449">
        <ele>312.7</ele>
        <time>2021-04-05T14:18:59Z</time>
      </trkpt>
      <trkpt lat="43.4858" lon="1.42486">
        <ele>313.5</ele>
        <time>2021-04-05T14:19:05Z</time>
      </trkpt>
      <trkpt lat="43.48567" lon="1.42525">
        <ele>313.5</ele>
        <time>2021-04-05T14:19:11Z</time>
      </trkpt>
      <trkpt lat="43.48552" lon="1.42568">
        <ele>313.6</ele>
        <time>2021-04-05T14:19:17Z</time>
      </trkpt>
      <trkpt lat="43.4854" lon="1.42607">
        <ele>313.4</ele>
        <time>2021-04-05T14:19:22Z</time>
      </trkpt>
      <trkpt lat="43.48524" lon="1.42656">
        <ele>312.6</ele>
        <time>2021-04-05T14:19:28Z</time>
      </trkpt>
      <trkpt lat="43.48513" lon="1.42698">
        <ele>312.8</ele>
        <time>2021-04-05T14:19:33Z</time>
      </trkpt>
      <trkpt lat="43.485" lon="1.42748">
        <ele>313.3</ele>
        <time>2021-04-05T14:19:39Z</time>
      </trkpt>
      <trkpt lat="43.48489" lon="1.42788">
        <ele>313.8</ele>
        <time>2021-04-05T14:19:44Z</time>
      </trkpt>
      <trkpt lat="43.4847" lon="1.42835">
        <ele>314</ele>
        <time>2021-04-05T14:19:50Z</time>
      </trkpt>
      <trkpt lat="43.48451" lon="1.4288">
        <ele>315.2</ele>
        <time>2021-04-05T14:19:56Z</time>
      </trkpt>
      <trkpt lat="43.48428" lon="1.42918">
        <ele>315.5</ele>
        <time>2021-04-05T14:20:02Z</time>
      </trkpt>
      <trkpt lat="43.48408" lon="1.42957">
        <ele>315.1</ele>
        <time>2021-04-05T14:20:08Z</time>
      </trkpt>
      <trkpt lat="43.48393" lon="1.42992">
        <ele>314.5</ele>
        <time>2021-04-05T14:20:13Z</time>
      </trkpt>
      <trkpt lat="43.4837" lon="1.43034">
        <ele>315.3</ele>
        <time>2021-04-05T14:20:19Z</time>
      </trkpt>
      <trkpt lat="43.48352" lon="1.43067">
        <ele>315.6</ele>
        <time>2021-04-05T14:20:24Z</time>
      </trkpt>
      <trkpt lat="43.4833" lon="1.43097">
        <ele>316.4</ele>
        <time>2021-04-05T14:20:29Z</time>
      </trkpt>
      <trkpt lat="43.48302" lon="1.43132">
        <ele>316.1</ele>
        <time>2021-04-05T14:20:35Z</time>
      </trkpt>
      <trkpt lat="43.48277" lon="1.43157">
        <ele>316.4</ele>
        <time>2021-04-05T14:20:40Z</time>
      </trkpt>
      <trkpt lat="43.48252" lon="1.43183">
        <ele>316.7</ele>
        <time>2021-04-05T14:20:45Z</time>
      </trkpt>
      <trkpt lat="43.48222" lon="1.43213">
        <ele>316.7</ele>
        <time>2021-04-05T14:20:51Z</time>
      </trkpt>
      <trkpt lat="43.48193" lon="1.43223">
        <ele>317.1</ele>
        <time>2021-04-05T14:20:56Z</time>
      </trkpt>
      <trkpt lat="43.48163" lon="1.43253">
        <ele>317.5</ele>
        <time>2021-04-05T14:21:02Z</time>
      </trkpt>
      <trkpt lat="43.48139" lon="1.43287">
        <ele>316.6</ele>
        <time>2021-04-05T14:21:08Z</time>
      </trkpt>
      <trkpt lat="43.48124" lon="1.43334">
        <ele>316.4</ele>
        <time>2021-04-05T14:21:14Z</time>
      </trkpt>
      <trkpt lat="43.48109" lon="1.43374">
        <ele>316.2</ele>
        <time>2021-04-05T14:21:19Z</time>
      </trkpt>
      <trkpt lat="43.48091" lon="1.43424">
        <ele>316.3</ele>
        <time>2021-04-05T14:21:25Z</time>
      </trkpt>
      <trkpt lat="43.48068" lon="1.43461">
        <ele>315.1</ele>
        <time>2021-04-05T14:21:30Z</time>
      </trkpt>
      <trkpt lat="43.48043" lon="1.43503">
        <ele>315.2</ele>
        <time>2021-04-05T14:21:36Z</time>
      </trkpt>
      <trkpt lat="43.48026" lon="1.43553">
        <ele>315.6</ele>
        <time>2021-04-05T14:21:42Z</time>
      </trkpt>
      <trkpt lat="43.48009" lon="1.43601">
        <ele>315.5</ele>
        <time>2021-04-05T14:21:48Z</time>
      </trkpt>
      <trkpt lat="43.47996" lon="1.43641">
        <ele>315.6</ele>
        <time>2021-04-05T14:21:53Z</time>
      </trkpt>
      <trkpt lat="43.47976" lon="1.43687">
        <ele>315.8</ele>
        <time>2021-04-05T14:21:59Z</time>
      </trkpt>
      <trkpt lat="43.47959" lon="1.43736">
        <ele>314.8</ele>
        <time>2021-04-05T14:22:05Z</time>
      </trkpt>
      <trkpt lat="43.47937" lon="1.43782">
        <ele>314.9</ele>
        <time>2021-04-05T14:22:11Z</time>
      </trkpt>
      <trkpt lat="43.47918" lon="1.43818">
        <ele>314.9</ele>
        <time>2021-04-05T14:22:16Z</time>
      </trkpt>
      <trkpt lat="43.47893" lon="1.43858">
        <ele>314.3</ele>
        <time>2021-04-05T14:22:22Z</time>
      </trkpt>
      <trkpt lat="43.47872" lon="1.43892">
        <ele>314.1</ele>
        <time>2021-04-05T14:22:27Z</time>
      </trkpt>
      <trkpt lat="43.47851" lon="1.43928">
        <ele>313.6</ele>
        <time>2021-04-05T14:22:32Z</time>
      </trkpt>
      <trkpt lat="43.47826" lon="1.43979">
        <ele>311.8</ele>
        <time>2021-04-05T14:22:38Z</time>
      </trkpt>
      <trkpt lat="43.47799" lon="1.44032">
        <ele>310.2</ele>
        <time>2021-04-05T14:22:44Z</time>
      </trkpt>
      <trkpt lat="43.47766" lon="1.44078">
        <ele>309.6</ele>
        <time>2021-04-05T14:22:50Z</time>
      </trkpt>
      <trkpt lat="43.47737" lon="1.44108">
        <ele>308.8</ele>
        <time>2021-04-05T14:22:55Z</time>
      </trkpt>
      <trkpt lat="43.47708" lon="1.44145">
        <ele>309.7</ele>
        <time>2021-04-05T14:23:01Z</time>
      </trkpt>
      <trkpt lat="43.47685" lon="1.44173">
        <ele>310.1</ele>
        <time>2021-04-05T14:23:06Z</time>
      </trkpt>
      <trkpt lat="43.4766" lon="1.44209">
        <ele>310.7</ele>
        <time>2021-04-05T14:23:12Z</time>
      </trkpt>
      <trkpt lat="43.47635" lon="1.44243">
        <ele>312.5</ele>
        <time>2021-04-05T14:23:18Z</time>
      </trkpt>
      <trkpt lat="43.47612" lon="1.44278">
        <ele>313.6</ele>
        <time>2021-04-05T14:23:24Z</time>
      </trkpt>
      <trkpt lat="43.47589" lon="1.44312">
        <ele>314.7</ele>
        <time>2021-04-05T14:23:30Z</time>
      </trkpt>
      <trkpt lat="43.47567" lon="1.44344">
        <ele>315.9</ele>
        <time>2021-04-05T14:23:36Z</time>
      </trkpt>
      <trkpt lat="43.47544" lon="1.44373">
        <ele>316.9</ele>
        <time>2021-04-05T14:23:42Z</time>
      </trkpt>
      <trkpt lat="43.4752" lon="1.44399">
        <ele>316.6</ele>
        <time>2021-04-05T14:23:48Z</time>
      </trkpt>
      <trkpt lat="43.47501" lon="1.44428">
        <ele>317.5</ele>
        <time>2021-04-05T14:23:53Z</time>
      </trkpt>
      <trkpt lat="43.47479" lon="1.44454">
        <ele>318.6</ele>
        <time>2021-04-05T14:23:58Z</time>
      </trkpt>
      <trkpt lat="43.4745" lon="1.4448">
        <ele>318.9</ele>
        <time>2021-04-05T14:24:04Z</time>
      </trkpt>
      <trkpt lat="43.47426" lon="1.44501">
        <ele>319.3</ele>
        <time>2021-04-05T14:24:09Z</time>
      </trkpt>
      <trkpt lat="43.474" lon="1.44525">
        <ele>319</ele>
        <time>2021-04-05T14:24:14Z</time>
      </trkpt>
      <trkpt lat="43.47368" lon="1.44561">
        <ele>317.5</ele>
        <time>2021-04-05T14:24:20Z</time>
      </trkpt>
      <trkpt lat="43.47339" lon="1.44604">
        <ele>316.1</ele>
        <time>2021-04-05T14:24:26Z</time>
      </trkpt>
      <trkpt lat="43.47313" lon="1.44652">
        <ele>315.8</ele>
        <time>2021-04-05T14:24:32Z</time>
      </trkpt>
      <trkpt lat="43.47289" lon="1.44701">
        <ele>315.8</ele>
        <time>2021-04-05T14:24:38Z</time>
      </trkpt>
      <trkpt lat="43.4727" lon="1.44739">
        <ele>316.6</ele>
        <time>2021-04-05T14:24:43Z</time>
      </trkpt>
      <trkpt lat="43.4725" lon="1.44775">
        <ele>316.9</ele>
        <time>2021-04-05T14:24:48Z</time>
      </trkpt>
      <trkpt lat="43.47226" lon="1.44814">
        <ele>317.4</ele>
        <time>2021-04-05T14:24:54Z</time>
      </trkpt>
      <trkpt lat="43.47205" lon="1.44844">
        <ele>317.2</ele>
        <time>2021-04-05T14:24:59Z</time>
      </trkpt>
      <trkpt lat="43.47183" lon="1.44872">
        <ele>318.4</ele>
        <time>2021-04-05T14:25:04Z</time>
      </trkpt>
      <trkpt lat="43.47163" lon="1.449">
        <ele>318.6</ele>
        <time>2021-04-05T14:25:09Z</time>
      </trkpt>
      <trkpt lat="43.4714" lon="1.44933">
        <ele>319.4</ele>
        <time>2021-04-05T14:25:15Z</time>
      </trkpt>
      <trkpt lat="43.4712" lon="1.4496">
        <ele>318.6</ele>
        <time>2021-04-05T14:25:20Z</time>
      </trkpt>
      <trkpt lat="43.47098" lon="1.4499">
        <ele>317.5</ele>
        <time>2021-04-05T14:25:25Z</time>
      </trkpt>
      <trkpt lat="43.47069" lon="1.45028">
        <ele>316.6</ele>
        <time>2021-04-05T14:25:31Z</time>
      </trkpt>
      <trkpt lat="43.47044" lon="1.45059">
        <ele>315.8</ele>
        <time>2021-04-05T14:25:36Z</time>
      </trkpt>
      <trkpt lat="43.47021" lon="1.45089">
        <ele>314.7</ele>
        <time>2021-04-05T14:25:41Z</time>
      </trkpt>
      <trkpt lat="43.46994" lon="1.45127">
        <ele>315</ele>
        <time>2021-04-05T14:25:47Z</time>
      </trkpt>
      <trkpt lat="43.46968" lon="1.45166">
        <ele>314.7</ele>
        <time>2021-04-05T14:25:53Z</time>
      </trkpt>
      <trkpt lat="43.46947" lon="1.45201">
        <ele>314.3</ele>
        <time>2021-04-05T14:25:58Z</time>
      </trkpt>
      <trkpt lat="43.46928" lon="1.45249">
        <ele>314.9</ele>
        <time>2021-04-05T14:26:04Z</time>
      </trkpt>
      <trkpt lat="43.46916" lon="1.45282">
        <ele>316.3</ele>
        <time>2021-04-05T14:26:09Z</time>
      </trkpt>
      <trkpt lat="43.46907" lon="1.45306">
        <ele>316.9</ele>
        <time>2021-04-05T14:26:14Z</time>
      </trkpt>
      <trkpt lat="43.469" lon="1.45317">
        <ele>316.8</ele>
        <time>2021-04-05T14:26:20Z</time>
      </trkpt>
      <trkpt lat="43.46901" lon="1.45317">
        <ele>317.7</ele>
        <time>2021-04-05T14:26:25Z</time>
      </trkpt>
      <trkpt lat="43.46901" lon="1.45317">
        <ele>317.6</ele>
        <time>2021-04-05T14:26:31Z</time>
      </trkpt>
      <trkpt lat="43.46901" lon="1.45317">
        <ele>318.2</ele>
        <time>2021-04-05T14:26:37Z</time>
      </trkpt>
      <trkpt lat="43.46901" lon="1.45317">
        <ele>318.2</ele>
        <time>2021-04-05T14:26:42Z</time>
      </trkpt>
      <trkpt lat="43.46895" lon="1.4532">
        <ele>317.5</ele>
        <time>2021-04-05T14:26:48Z</time>
      </trkpt>
      <trkpt lat="43.46871" lon="1.45324">
        <ele>317</ele>
        <time>2021-04-05T14:26:53Z</time>
      </trkpt>
      <trkpt lat="43.46837" lon="1.45325">
        <ele>315.6</ele>
        <time>2021-04-05T14:26:59Z</time>
      </trkpt>
      <trkpt lat="43.46806" lon="1.45323">
        <ele>314.4</ele>
        <time>2021-04-05T14:27:04Z</time>
      </trkpt>
      <trkpt lat="43.46776" lon="1.45317">
        <ele>313.8</ele>
        <time>2021-04-05T14:27:09Z</time>
      </trkpt>
      <trkpt lat="43.4674" lon="1.45297">
        <ele>312.4</ele>
        <time>2021-04-05T14:27:15Z</time>
      </trkpt>
      <trkpt lat="43.46708" lon="1.4527">
        <ele>311.9</ele>
        <time>2021-04-05T14:27:21Z</time>
      </trkpt>
      <trkpt lat="43.46683" lon="1.45259">
        <ele>310.4</ele>
        <time>2021-04-05T14:27:26Z</time>
      </trkpt>
      <trkpt lat="43.46651" lon="1.45293">
        <ele>308.9</ele>
        <time>2021-04-05T14:27:32Z</time>
      </trkpt>
      <trkpt lat="43.4663" lon="1.45336">
        <ele>307.3</ele>
        <time>2021-04-05T14:27:37Z</time>
      </trkpt>
      <trkpt lat="43.46626" lon="1.45388">
        <ele>307.2</ele>
        <time>2021-04-05T14:27:42Z</time>
      </trkpt>
      <trkpt lat="43.46619" lon="1.45438">
        <ele>307.4</ele>
        <time>2021-04-05T14:27:48Z</time>
      </trkpt>
      <trkpt lat="43.46603" lon="1.45482">
        <ele>308.6</ele>
        <time>2021-04-05T14:27:54Z</time>
      </trkpt>
      <trkpt lat="43.46586" lon="1.4551">
        <ele>310.3</ele>
        <time>2021-04-05T14:27:59Z</time>
      </trkpt>
      <trkpt lat="43.46568" lon="1.45529">
        <ele>310.5</ele>
        <time>2021-04-05T14:28:04Z</time>
      </trkpt>
      <trkpt lat="43.46538" lon="1.4553">
        <ele>309.9</ele>
        <time>2021-04-05T14:28:10Z</time>
      </trkpt>
      <trkpt lat="43.46505" lon="1.45519">
        <ele>308.4</ele>
        <time>2021-04-05T14:28:16Z</time>
      </trkpt>
      <trkpt lat="43.46465" lon="1.45505">
        <ele>304.5</ele>
        <time>2021-04-05T14:28:22Z</time>
      </trkpt>
      <trkpt lat="43.46425" lon="1.45493">
        <ele>301.3</ele>
        <time>2021-04-05T14:28:28Z</time>
      </trkpt>
      <trkpt lat="43.46394" lon="1.45486">
        <ele>298.9</ele>
        <time>2021-04-05T14:28:33Z</time>
      </trkpt>
      <trkpt lat="43.46374" lon="1.45518">
        <ele>301.2</ele>
        <time>2021-04-05T14:28:38Z</time>
      </trkpt>
      <trkpt lat="43.46354" lon="1.4556">
        <ele>302.5</ele>
        <time>2021-04-05T14:28:44Z</time>
      </trkpt>
      <trkpt lat="43.4634" lon="1.45597">
        <ele>303.5</ele>
        <time>2021-04-05T14:28:49Z</time>
      </trkpt>
      <trkpt lat="43.46323" lon="1.45639">
        <ele>305.1</ele>
        <time>2021-04-05T14:28:55Z</time>
      </trkpt>
      <trkpt lat="43.46309" lon="1.45683">
        <ele>307.3</ele>
        <time>2021-04-05T14:29:01Z</time>
      </trkpt>
      <trkpt lat="43.46293" lon="1.45725">
        <ele>307.5</ele>
        <time>2021-04-05T14:29:07Z</time>
      </trkpt>
      <trkpt lat="43.46273" lon="1.4576">
        <ele>305.9</ele>
        <time>2021-04-05T14:29:12Z</time>
      </trkpt>
      <trkpt lat="43.46244" lon="1.45808">
        <ele>303.6</ele>
        <time>2021-04-05T14:29:18Z</time>
      </trkpt>
      <trkpt lat="43.46217" lon="1.4585">
        <ele>302.1</ele>
        <time>2021-04-05T14:29:23Z</time>
      </trkpt>
      <trkpt lat="43.46189" lon="1.459">
        <ele>299.3</ele>
        <time>2021-04-05T14:29:29Z</time>
      </trkpt>
      <trkpt lat="43.46165" lon="1.45953">
        <ele>298.1</ele>
        <time>2021-04-05T14:29:35Z</time>
      </trkpt>
      <trkpt lat="43.46143" lon="1.45999">
        <ele>298.6</ele>
        <time>2021-04-05T14:29:40Z</time>
      </trkpt>
      <trkpt lat="43.46119" lon="1.46048">
        <ele>298.3</ele>
        <time>2021-04-05T14:29:46Z</time>
      </trkpt>
      <trkpt lat="43.46096" lon="1.46093">
        <ele>299.6</ele>
        <time>2021-04-05T14:29:52Z</time>
      </trkpt>
      <trkpt lat="43.46077" lon="1.4613">
        <ele>299.3</ele>
        <time>2021-04-05T14:29:57Z</time>
      </trkpt>
      <trkpt lat="43.46061" lon="1.4617">
        <ele>300.8</ele>
        <time>2021-04-05T14:30:02Z</time>
      </trkpt>
      <trkpt lat="43.46042" lon="1.46215">
        <ele>302.9</ele>
        <time>2021-04-05T14:30:08Z</time>
      </trkpt>
      <trkpt lat="43.46028" lon="1.46254">
        <ele>303.5</ele>
        <time>2021-04-05T14:30:13Z</time>
      </trkpt>
      <trkpt lat="43.46016" lon="1.46292">
        <ele>305</ele>
        <time>2021-04-05T14:30:18Z</time>
      </trkpt>
      <trkpt lat="43.46007" lon="1.46337">
        <ele>306.6</ele>
        <time>2021-04-05T14:30:24Z</time>
      </trkpt>
      <trkpt lat="43.46003" lon="1.46384">
        <ele>307.1</ele>
        <time>2021-04-05T14:30:30Z</time>
      </trkpt>
      <trkpt lat="43.46002" lon="1.46424">
        <ele>308.6</ele>
        <time>2021-04-05T14:30:35Z</time>
      </trkpt>
      <trkpt lat="43.46004" lon="1.46473">
        <ele>308.7</ele>
        <time>2021-04-05T14:30:41Z</time>
      </trkpt>
      <trkpt lat="43.46006" lon="1.46524">
        <ele>310.5</ele>
        <time>2021-04-05T14:30:47Z</time>
      </trkpt>
      <trkpt lat="43.4601" lon="1.46566">
        <ele>310.9</ele>
        <time>2021-04-05T14:30:52Z</time>
      </trkpt>
      <trkpt lat="43.46016" lon="1.46607">
        <ele>312.8</ele>
        <time>2021-04-05T14:30:57Z</time>
      </trkpt>
      <trkpt lat="43.46029" lon="1.46651">
        <ele>312.1</ele>
        <time>2021-04-05T14:31:03Z</time>
      </trkpt>
      <trkpt lat="43.4605" lon="1.46697">
        <ele>311.4</ele>
        <time>2021-04-05T14:31:09Z</time>
      </trkpt>
      <trkpt lat="43.46065" lon="1.46746">
        <ele>312.9</ele>
        <time>2021-04-05T14:31:15Z</time>
      </trkpt>
      <trkpt lat="43.46081" lon="1.46782">
        <ele>313.1</ele>
        <time>2021-04-05T14:31:20Z</time>
      </trkpt>
      <trkpt lat="43.46104" lon="1.46805">
        <ele>313.6</ele>
        <time>2021-04-05T14:31:25Z</time>
      </trkpt>
      <trkpt lat="43.46118" lon="1.46819">
        <ele>314.8</ele>
        <time>2021-04-05T14:31:30Z</time>
      </trkpt>
      <trkpt lat="43.46128" lon="1.46831">
        <ele>315.3</ele>
        <time>2021-04-05T14:31:36Z</time>
      </trkpt>
      <trkpt lat="43.46144" lon="1.4686">
        <ele>317.4</ele>
        <time>2021-04-05T14:31:41Z</time>
      </trkpt>
      <trkpt lat="43.4615" lon="1.46902">
        <ele>318.7</ele>
        <time>2021-04-05T14:31:47Z</time>
      </trkpt>
      <trkpt lat="43.46154" lon="1.46936">
        <ele>320.6</ele>
        <time>2021-04-05T14:31:52Z</time>
      </trkpt>
      <trkpt lat="43.46162" lon="1.46966">
        <ele>321.8</ele>
        <time>2021-04-05T14:31:57Z</time>
      </trkpt>
      <trkpt lat="43.46178" lon="1.46993">
        <ele>324.3</ele>
        <time>2021-04-05T14:32:03Z</time>
      </trkpt>
      <trkpt lat="43.46182" lon="1.47033">
        <ele>325.9</ele>
        <time>2021-04-05T14:32:09Z</time>
      </trkpt>
      <trkpt lat="43.46185" lon="1.47066">
        <ele>325.7</ele>
        <time>2021-04-05T14:32:14Z</time>
      </trkpt>
      <trkpt lat="43.46176" lon="1.47095">
        <ele>326.8</ele>
        <time>2021-04-05T14:32:20Z</time>
      </trkpt>
      <trkpt lat="43.46167" lon="1.47122">
        <ele>327.8</ele>
        <time>2021-04-05T14:32:25Z</time>
      </trkpt>
      <trkpt lat="43.46153" lon="1.47157">
        <ele>329.7</ele>
        <time>2021-04-05T14:32:31Z</time>
      </trkpt>
      <trkpt lat="43.46139" lon="1.47183">
        <ele>329.7</ele>
        <time>2021-04-05T14:32:36Z</time>
      </trkpt>
      <trkpt lat="43.46127" lon="1.47213">
        <ele>330.7</ele>
        <time>2021-04-05T14:32:42Z</time>
      </trkpt>
      <trkpt lat="43.46116" lon="1.47243">
        <ele>331.8</ele>
        <time>2021-04-05T14:32:47Z</time>
      </trkpt>
      <trkpt lat="43.46097" lon="1.47275">
        <ele>331.5</ele>
        <time>2021-04-05T14:32:53Z</time>
      </trkpt>
      <trkpt lat="43.46083" lon="1.47302">
        <ele>333.1</ele>
        <time>2021-04-05T14:32:58Z</time>
      </trkpt>
      <trkpt lat="43.46068" lon="1.47335">
        <ele>333.5</ele>
        <time>2021-04-05T14:33:04Z</time>
      </trkpt>
      <trkpt lat="43.46053" lon="1.47369">
        <ele>333.8</ele>
        <time>2021-04-05T14:33:10Z</time>
      </trkpt>
      <trkpt lat="43.46036" lon="1.47411">
        <ele>334.5</ele>
        <time>2021-04-05T14:33:16Z</time>
      </trkpt>
      <trkpt lat="43.4602" lon="1.47449">
        <ele>334.7</ele>
        <time>2021-04-05T14:33:22Z</time>
      </trkpt>
      <trkpt lat="43.46011" lon="1.47472">
        <ele>334.7</ele>
        <time>2021-04-05T14:33:27Z</time>
      </trkpt>
      <trkpt lat="43.46004" lon="1.47488">
        <ele>335.1</ele>
        <time>2021-04-05T14:33:32Z</time>
      </trkpt>
      <trkpt lat="43.46004" lon="1.47489">
        <ele>335.5</ele>
        <time>2021-04-05T14:33:38Z</time>
      </trkpt>
      <trkpt lat="43.46004" lon="1.47489">
        <ele>334.9</ele>
        <time>2021-04-05T14:33:43Z</time>
      </trkpt>
      <trkpt lat="43.46004" lon="1.47489">
        <ele>335.2</ele>
        <time>2021-04-05T14:33:49Z</time>
      </trkpt>
      <trkpt lat="43.46004" lon="1.47488">
        <ele>335.9</ele>
        <time>2021-04-05T14:33:54Z</time>
      </trkpt>
      <trkpt lat="43.46004" lon="1.47488">
        <ele>336.9</ele>
        <time>2021-04-05T14:34:00Z</time>
      </trkpt>
      <trkpt lat="43.46004" lon="1.47488">
        <ele>335.8</ele>
        <time>2021-04-05T14:34:05Z</time>
      </trkpt>
      <trkpt lat="43.46004" lon="1.47488">
        <ele>336.4</ele>
        <time>2021-04-05T14:34:11Z</time>
      </trkpt>
      <trkpt lat="43.46004" lon="1.47488">
        <ele>336.3</ele>
        <time>2021-04-05T14:34:17Z</time>
      </trkpt>
      <trkpt lat="43.46004" lon="1.47488">
        <ele>336.1</ele>
        <time>2021-04-05T14:34:23Z</time>
      </trkpt>
      <trkpt lat="43.46004" lon="1.47488">
        <ele>336.2</ele>
        <time>2021-04-05T14:34:29Z</time>
      </trkpt>
      <trkpt lat="43.46004" lon="1.47488">
        <ele>336.5</ele>
        <time>2021-04-05T14:34:35Z</time>
      </trkpt>
      <trkpt lat="43.46004" lon="1.47488">
        <ele>336.2</ele>
        <time>2021-04-05T14:34:40Z</time>
      </trkpt>
      <trkpt lat="43.46004" lon="1.47488">
        <ele>336.5</ele>
        <time>2021-04-05T14:34:46Z</time>
      </trkpt>
      <trkpt lat="43.46004" lon="1.47488">
        <ele>336.7</ele>
        <time>2021-04-05T14:34:51Z</time>
      </trkpt>
      <trkpt lat="43.46004" lon="1.47488">
        <ele>336.2</ele>
        <time>2021-04-05T14:34:57Z</time>
      </trkpt>
      <trkpt lat="43.46004" lon="1.47488">
        <ele>335.9</ele>
        <time>2021-04-05T14:35:02Z</time>
      </trkpt>
      <trkpt lat="43.46004" lon="1.47488">
        <ele>336.3</ele>
        <time>2021-04-05T14:35:08Z</time>
      </trkpt>
      <trkpt lat="43.46004" lon="1.47488">
        <ele>336.4</ele>
        <time>2021-04-05T14:35:13Z</time>
      </trkpt>
      <trkpt lat="43.46004" lon="1.47488">
        <ele>335.9</ele>
        <time>2021-04-05T14:35:19Z</time>
      </trkpt>
      <trkpt lat="43.46004" lon="1.47488">
        <ele>336.3</ele>
        <time>2021-04-05T14:35:25Z</time>
      </trkpt>
      <trkpt lat="43.46004" lon="1.47488">
        <ele>335.9</ele>
        <time>2021-04-05T14:35:31Z</time>
      </trkpt>
      <trkpt lat="43.46004" lon="1.47488">
        <ele>336.4</ele>
        <time>2021-04-05T14:35:37Z</time>
      </trkpt>
      <trkpt lat="43.46004" lon="1.47488">
        <ele>336.2</ele>
        <time>2021-04-05T14:35:43Z</time>
      </trkpt>
      <trkpt lat="43.46004" lon="1.47488">
        <ele>337</ele>
        <time>2021-04-05T14:35:49Z</time>
      </trkpt>
      <trkpt lat="43.46001" lon="1.47489">
        <ele>336.3</ele>
        <time>2021-04-05T14:35:54Z</time>
      </trkpt>
      <trkpt lat="43.45988" lon="1.47506">
        <ele>335.1</ele>
        <time>2021-04-05T14:35:59Z</time>
      </trkpt>
      <trkpt lat="43.45971" lon="1.4753">
        <ele>334.5</ele>
        <time>2021-04-05T14:36:04Z</time>
      </trkpt>
      <trkpt lat="43.45953" lon="1.47561">
        <ele>333.1</ele>
        <time>2021-04-05T14:36:10Z</time>
      </trkpt>
      <trkpt lat="43.45939" lon="1.47588">
        <ele>333.1</ele>
        <time>2021-04-05T14:36:15Z</time>
      </trkpt>
      <trkpt lat="43.45928" lon="1.47613">
        <ele>332.6</ele>
        <time>2021-04-05T14:36:21Z</time>
      </trkpt>
      <trkpt lat="43.45931" lon="1.47624">
        <ele>332.3</ele>
        <time>2021-04-05T14:36:26Z</time>
      </trkpt>
      <trkpt lat="43.45958" lon="1.47648">
        <ele>328</ele>
        <time>2021-04-05T14:36:31Z</time>
      </trkpt>
      <trkpt lat="43.45995" lon="1.47679">
        <ele>318.2</ele>
        <time>2021-04-05T14:36:37Z</time>
      </trkpt>
      <trkpt lat="43.4603" lon="1.47692">
        <ele>314.1</ele>
        <time>2021-04-05T14:36:42Z</time>
      </trkpt>
      <trkpt lat="43.46066" lon="1.47711">
        <ele>309.6</ele>
        <time>2021-04-05T14:36:48Z</time>
      </trkpt>
      <trkpt lat="43.46099" lon="1.47764">
        <ele>306.1</ele>
        <time>2021-04-05T14:36:54Z</time>
      </trkpt>
      <trkpt lat="43.4613" lon="1.47818">
        <ele>303.7</ele>
        <time>2021-04-05T14:37:00Z</time>
      </trkpt>
      <trkpt lat="43.46155" lon="1.47859">
        <ele>303.1</ele>
        <time>2021-04-05T14:37:05Z</time>
      </trkpt>
      <trkpt lat="43.46175" lon="1.47895">
        <ele>303.3</ele>
        <time>2021-04-05T14:37:10Z</time>
      </trkpt>
      <trkpt lat="43.46195" lon="1.47933">
        <ele>303.4</ele>
        <time>2021-04-05T14:37:16Z</time>
      </trkpt>
      <trkpt lat="43.4621" lon="1.47966">
        <ele>303.7</ele>
        <time>2021-04-05T14:37:21Z</time>
      </trkpt>
      <trkpt lat="43.46228" lon="1.47999">
        <ele>302.9</ele>
        <time>2021-04-05T14:37:27Z</time>
      </trkpt>
      <trkpt lat="43.46261" lon="1.48034">
        <ele>298.4</ele>
        <time>2021-04-05T14:37:33Z</time>
      </trkpt>
      <trkpt lat="43.46308" lon="1.48073">
        <ele>294.1</ele>
        <time>2021-04-05T14:37:39Z</time>
      </trkpt>
      <trkpt lat="43.46362" lon="1.48108">
        <ele>290.7</ele>
        <time>2021-04-05T14:37:45Z</time>
      </trkpt>
      <trkpt lat="43.46409" lon="1.48136">
        <ele>285.9</ele>
        <time>2021-04-05T14:37:50Z</time>
      </trkpt>
      <trkpt lat="43.4647" lon="1.48176">
        <ele>278.1</ele>
        <time>2021-04-05T14:37:56Z</time>
      </trkpt>
      <trkpt lat="43.46523" lon="1.4821">
        <ele>272.8</ele>
        <time>2021-04-05T14:38:01Z</time>
      </trkpt>
      <trkpt lat="43.46565" lon="1.48225">
        <ele>268.5</ele>
        <time>2021-04-05T14:38:06Z</time>
      </trkpt>
      <trkpt lat="43.46544" lon="1.48288">
        <ele>264.7</ele>
        <time>2021-04-05T14:38:12Z</time>
      </trkpt>
      <trkpt lat="43.4652" lon="1.4834">
        <ele>261.5</ele>
        <time>2021-04-05T14:38:18Z</time>
      </trkpt>
      <trkpt lat="43.46564" lon="1.48335">
        <ele>256.9</ele>
        <time>2021-04-05T14:38:24Z</time>
      </trkpt>
      <trkpt lat="43.46614" lon="1.48329">
        <ele>251.7</ele>
        <time>2021-04-05T14:38:30Z</time>
      </trkpt>
      <trkpt lat="43.4666" lon="1.48335">
        <ele>247.5</ele>
        <time>2021-04-05T14:38:36Z</time>
      </trkpt>
      <trkpt lat="43.46679" lon="1.48341">
        <ele>247.2</ele>
        <time>2021-04-05T14:38:41Z</time>
      </trkpt>
      <trkpt lat="43.46685" lon="1.48349">
        <ele>247.1</ele>
        <time>2021-04-05T14:38:47Z</time>
      </trkpt>
      <trkpt lat="43.46685" lon="1.48348">
        <ele>247.3</ele>
        <time>2021-04-05T14:38:52Z</time>
      </trkpt>
      <trkpt lat="43.46684" lon="1.48348">
        <ele>247.7</ele>
        <time>2021-04-05T14:38:58Z</time>
      </trkpt>
      <trkpt lat="43.46684" lon="1.48348">
        <ele>247.6</ele>
        <time>2021-04-05T14:39:03Z</time>
      </trkpt>
      <trkpt lat="43.46684" lon="1.48348">
        <ele>247</ele>
        <time>2021-04-05T14:39:09Z</time>
      </trkpt>
      <trkpt lat="43.46684" lon="1.48348">
        <ele>248.6</ele>
        <time>2021-04-05T14:39:14Z</time>
      </trkpt>
      <trkpt lat="43.46685" lon="1.4835">
        <ele>248</ele>
        <time>2021-04-05T14:39:19Z</time>
      </trkpt>
      <trkpt lat="43.46685" lon="1.48349">
        <ele>248.6</ele>
        <time>2021-04-05T14:39:25Z</time>
      </trkpt>
      <trkpt lat="43.46685" lon="1.48349">
        <ele>249.1</ele>
        <time>2021-04-05T14:39:31Z</time>
      </trkpt>
      <trkpt lat="43.46685" lon="1.48349">
        <ele>249.2</ele>
        <time>2021-04-05T14:39:36Z</time>
      </trkpt>
      <trkpt lat="43.46685" lon="1.48349">
        <ele>249</ele>
        <time>2021-04-05T14:39:42Z</time>
      </trkpt>
      <trkpt lat="43.46685" lon="1.48349">
        <ele>249.1</ele>
        <time>2021-04-05T14:39:47Z</time>
      </trkpt>
      <trkpt lat="43.46685" lon="1.48349">
        <ele>249.3</ele>
        <time>2021-04-05T14:39:52Z</time>
      </trkpt>
      <trkpt lat="43.46685" lon="1.48349">
        <ele>248.9</ele>
        <time>2021-04-05T14:39:58Z</time>
      </trkpt>
      <trkpt lat="43.46685" lon="1.48349">
        <ele>249</ele>
        <time>2021-04-05T14:40:03Z</time>
      </trkpt>
      <trkpt lat="43.46685" lon="1.48349">
        <ele>249.6</ele>
        <time>2021-04-05T14:40:08Z</time>
      </trkpt>
      <trkpt lat="43.46682" lon="1.48354">
        <ele>249.5</ele>
        <time>2021-04-05T14:40:14Z</time>
      </trkpt>
      <trkpt lat="43.46658" lon="1.48363">
        <ele>248.8</ele>
        <time>2021-04-05T14:40:19Z</time>
      </trkpt>
      <trkpt lat="43.46624" lon="1.48378">
        <ele>249.1</ele>
        <time>2021-04-05T14:40:25Z</time>
      </trkpt>
      <trkpt lat="43.46592" lon="1.484">
        <ele>249.9</ele>
        <time>2021-04-05T14:40:31Z</time>
      </trkpt>
      <trkpt lat="43.46569" lon="1.48422">
        <ele>250.1</ele>
        <time>2021-04-05T14:40:36Z</time>
      </trkpt>
      <trkpt lat="43.46547" lon="1.48444">
        <ele>250.3</ele>
        <time>2021-04-05T14:40:41Z</time>
      </trkpt>
      <trkpt lat="43.46523" lon="1.48473">
        <ele>249.9</ele>
        <time>2021-04-05T14:40:47Z</time>
      </trkpt>
      <trkpt lat="43.46501" lon="1.48492">
        <ele>250.8</ele>
        <time>2021-04-05T14:40:53Z</time>
      </trkpt>
      <trkpt lat="43.46468" lon="1.48492">
        <ele>252.2</ele>
        <time>2021-04-05T14:40:59Z</time>
      </trkpt>
      <trkpt lat="43.46439" lon="1.48489">
        <ele>253.5</ele>
        <time>2021-04-05T14:41:05Z</time>
      </trkpt>
      <trkpt lat="43.46417" lon="1.48475">
        <ele>254.7</ele>
        <time>2021-04-05T14:41:10Z</time>
      </trkpt>
      <trkpt lat="43.46394" lon="1.48449">
        <ele>257.5</ele>
        <time>2021-04-05T14:41:16Z</time>
      </trkpt>
      <trkpt lat="43.46368" lon="1.48435">
        <ele>260.7</ele>
        <time>2021-04-05T14:41:22Z</time>
      </trkpt>
      <trkpt lat="43.46343" lon="1.48427">
        <ele>262.2</ele>
        <time>2021-04-05T14:41:27Z</time>
      </trkpt>
      <trkpt lat="43.46314" lon="1.48416">
        <ele>263.6</ele>
        <time>2021-04-05T14:41:33Z</time>
      </trkpt>
      <trkpt lat="43.46284" lon="1.48404">
        <ele>266.4</ele>
        <time>2021-04-05T14:41:39Z</time>
      </trkpt>
      <trkpt lat="43.46255" lon="1.48395">
        <ele>269.1</ele>
        <time>2021-04-05T14:41:45Z</time>
      </trkpt>
      <trkpt lat="43.46232" lon="1.48387">
        <ele>270.2</ele>
        <time>2021-04-05T14:41:50Z</time>
      </trkpt>
      <trkpt lat="43.4621" lon="1.48408">
        <ele>273.5</ele>
        <time>2021-04-05T14:41:56Z</time>
      </trkpt>
      <trkpt lat="43.46196" lon="1.48437">
        <ele>275</ele>
        <time>2021-04-05T14:42:01Z</time>
      </trkpt>
      <trkpt lat="43.46179" lon="1.48469">
        <ele>277.3</ele>
        <time>2021-04-05T14:42:07Z</time>
      </trkpt>
      <trkpt lat="43.46165" lon="1.48491">
        <ele>279.9</ele>
        <time>2021-04-05T14:42:13Z</time>
      </trkpt>
      <trkpt lat="43.46153" lon="1.4851">
        <ele>281.7</ele>
        <time>2021-04-05T14:42:18Z</time>
      </trkpt>
      <trkpt lat="43.4614" lon="1.48535">
        <ele>283.5</ele>
        <time>2021-04-05T14:42:23Z</time>
      </trkpt>
      <trkpt lat="43.46123" lon="1.48563">
        <ele>286.4</ele>
        <time>2021-04-05T14:42:29Z</time>
      </trkpt>
      <trkpt lat="43.4611" lon="1.48583">
        <ele>289.1</ele>
        <time>2021-04-05T14:42:34Z</time>
      </trkpt>
      <trkpt lat="43.46097" lon="1.486">
        <ele>290.9</ele>
        <time>2021-04-05T14:42:39Z</time>
      </trkpt>
      <trkpt lat="43.46085" lon="1.48628">
        <ele>292</ele>
        <time>2021-04-05T14:42:45Z</time>
      </trkpt>
      <trkpt lat="43.46074" lon="1.48652">
        <ele>292.6</ele>
        <time>2021-04-05T14:42:50Z</time>
      </trkpt>
      <trkpt lat="43.46063" lon="1.48678">
        <ele>293.9</ele>
        <time>2021-04-05T14:42:56Z</time>
      </trkpt>
      <trkpt lat="43.46052" lon="1.48708">
        <ele>294.8</ele>
        <time>2021-04-05T14:43:02Z</time>
      </trkpt>
      <trkpt lat="43.46035" lon="1.48736">
        <ele>296.2</ele>
        <time>2021-04-05T14:43:07Z</time>
      </trkpt>
      <trkpt lat="43.46017" lon="1.48765">
        <ele>298</ele>
        <time>2021-04-05T14:43:13Z</time>
      </trkpt>
      <trkpt lat="43.45997" lon="1.48801">
        <ele>300.4</ele>
        <time>2021-04-05T14:43:19Z</time>
      </trkpt>
      <trkpt lat="43.4598" lon="1.4883">
        <ele>302.2</ele>
        <time>2021-04-05T14:43:24Z</time>
      </trkpt>
      <trkpt lat="43.45959" lon="1.48866">
        <ele>303.7</ele>
        <time>2021-04-05T14:43:30Z</time>
      </trkpt>
      <trkpt lat="43.45942" lon="1.48895">
        <ele>305.4</ele>
        <time>2021-04-05T14:43:35Z</time>
      </trkpt>
      <trkpt lat="43.45926" lon="1.48923">
        <ele>307.1</ele>
        <time>2021-04-05T14:43:40Z</time>
      </trkpt>
      <trkpt lat="43.45905" lon="1.48957">
        <ele>308.5</ele>
        <time>2021-04-05T14:43:46Z</time>
      </trkpt>
      <trkpt lat="43.45884" lon="1.48992">
        <ele>309.8</ele>
        <time>2021-04-05T14:43:52Z</time>
      </trkpt>
      <trkpt lat="43.45865" lon="1.49027">
        <ele>310.8</ele>
        <time>2021-04-05T14:43:58Z</time>
      </trkpt>
      <trkpt lat="43.45848" lon="1.49055">
        <ele>312.5</ele>
        <time>2021-04-05T14:44:03Z</time>
      </trkpt>
      <trkpt lat="43.45828" lon="1.4909">
        <ele>314.5</ele>
        <time>2021-04-05T14:44:09Z</time>
      </trkpt>
      <trkpt lat="43.45807" lon="1.49124">
        <ele>316.8</ele>
        <time>2021-04-05T14:44:15Z</time>
      </trkpt>
      <trkpt lat="43.45791" lon="1.49152">
        <ele>318.7</ele>
        <time>2021-04-05T14:44:20Z</time>
      </trkpt>
      <trkpt lat="43.45771" lon="1.49186">
        <ele>320.8</ele>
        <time>2021-04-05T14:44:26Z</time>
      </trkpt>
      <trkpt lat="43.45751" lon="1.49219">
        <ele>322.5</ele>
        <time>2021-04-05T14:44:32Z</time>
      </trkpt>
      <trkpt lat="43.45732" lon="1.49251">
        <ele>323</ele>
        <time>2021-04-05T14:44:38Z</time>
      </trkpt>
      <trkpt lat="43.45716" lon="1.49277">
        <ele>323.3</ele>
        <time>2021-04-05T14:44:43Z</time>
      </trkpt>
      <trkpt lat="43.45699" lon="1.49302">
        <ele>324.3</ele>
        <time>2021-04-05T14:44:48Z</time>
      </trkpt>
      <trkpt lat="43.45676" lon="1.49332">
        <ele>325.4</ele>
        <time>2021-04-05T14:44:54Z</time>
      </trkpt>
      <trkpt lat="43.45651" lon="1.49362">
        <ele>325.4</ele>
        <time>2021-04-05T14:45:00Z</time>
      </trkpt>
      <trkpt lat="43.45625" lon="1.49393">
        <ele>325.8</ele>
        <time>2021-04-05T14:45:06Z</time>
      </trkpt>
      <trkpt lat="43.45598" lon="1.49425">
        <ele>326.2</ele>
        <time>2021-04-05T14:45:12Z</time>
      </trkpt>
      <trkpt lat="43.4557" lon="1.49458">
        <ele>326.2</ele>
        <time>2021-04-05T14:45:18Z</time>
      </trkpt>
      <trkpt lat="43.45545" lon="1.49493">
        <ele>326.6</ele>
        <time>2021-04-05T14:45:24Z</time>
      </trkpt>
      <trkpt lat="43.45529" lon="1.49535">
        <ele>326.8</ele>
        <time>2021-04-05T14:45:30Z</time>
      </trkpt>
      <trkpt lat="43.45514" lon="1.49582">
        <ele>327.4</ele>
        <time>2021-04-05T14:45:36Z</time>
      </trkpt>
      <trkpt lat="43.45497" lon="1.49625">
        <ele>328.4</ele>
        <time>2021-04-05T14:45:42Z</time>
      </trkpt>
      <trkpt lat="43.45483" lon="1.49661">
        <ele>329.4</ele>
        <time>2021-04-05T14:45:48Z</time>
      </trkpt>
      <trkpt lat="43.45472" lon="1.49682">
        <ele>329.5</ele>
        <time>2021-04-05T14:45:53Z</time>
      </trkpt>
      <trkpt lat="43.45468" lon="1.49691">
        <ele>329.6</ele>
        <time>2021-04-05T14:45:59Z</time>
      </trkpt>
      <trkpt lat="43.45469" lon="1.49687">
        <ele>329.5</ele>
        <time>2021-04-05T14:46:05Z</time>
      </trkpt>
      <trkpt lat="43.4547" lon="1.49688">
        <ele>330.3</ele>
        <time>2021-04-05T14:46:10Z</time>
      </trkpt>
      <trkpt lat="43.4547" lon="1.49687">
        <ele>329.8</ele>
        <time>2021-04-05T14:46:16Z</time>
      </trkpt>
      <trkpt lat="43.4547" lon="1.49687">
        <ele>330.3</ele>
        <time>2021-04-05T14:46:22Z</time>
      </trkpt>
      <trkpt lat="43.4547" lon="1.49687">
        <ele>330</ele>
        <time>2021-04-05T14:46:27Z</time>
      </trkpt>
      <trkpt lat="43.4547" lon="1.49687">
        <ele>330.1</ele>
        <time>2021-04-05T14:46:33Z</time>
      </trkpt>
      <trkpt lat="43.4547" lon="1.49687">
        <ele>330.1</ele>
        <time>2021-04-05T14:46:39Z</time>
      </trkpt>
      <trkpt lat="43.45468" lon="1.4969">
        <ele>329.9</ele>
        <time>2021-04-05T14:46:45Z</time>
      </trkpt>
      <trkpt lat="43.4546" lon="1.49709">
        <ele>329.4</ele>
        <time>2021-04-05T14:46:50Z</time>
      </trkpt>
      <trkpt lat="43.45455" lon="1.4973">
        <ele>327.6</ele>
        <time>2021-04-05T14:46:55Z</time>
      </trkpt>
      <trkpt lat="43.45435" lon="1.49754">
        <ele>327.5</ele>
        <time>2021-04-05T14:47:01Z</time>
      </trkpt>
      <trkpt lat="43.45414" lon="1.49795">
        <ele>329.3</ele>
        <time>2021-04-05T14:47:07Z</time>
      </trkpt>
      <trkpt lat="43.45396" lon="1.49834">
        <ele>330.1</ele>
        <time>2021-04-05T14:47:13Z</time>
      </trkpt>
      <trkpt lat="43.45381" lon="1.49871">
        <ele>328.6</ele>
        <time>2021-04-05T14:47:18Z</time>
      </trkpt>
      <trkpt lat="43.4536" lon="1.4992">
        <ele>326.6</ele>
        <time>2021-04-05T14:47:24Z</time>
      </trkpt>
      <trkpt lat="43.45336" lon="1.49966">
        <ele>324.5</ele>
        <time>2021-04-05T14:47:29Z</time>
      </trkpt>
      <trkpt lat="43.45302" lon="1.50019">
        <ele>321.3</ele>
        <time>2021-04-05T14:47:35Z</time>
      </trkpt>
      <trkpt lat="43.45274" lon="1.50062">
        <ele>321</ele>
        <time>2021-04-05T14:47:40Z</time>
      </trkpt>
      <trkpt lat="43.45244" lon="1.50106">
        <ele>321.8</ele>
        <time>2021-04-05T14:47:46Z</time>
      </trkpt>
      <trkpt lat="43.45216" lon="1.50149">
        <ele>321.9</ele>
        <time>2021-04-05T14:47:52Z</time>
      </trkpt>
      <trkpt lat="43.45189" lon="1.5019">
        <ele>323</ele>
        <time>2021-04-05T14:47:58Z</time>
      </trkpt>
      <trkpt lat="43.45161" lon="1.50224">
        <ele>323.1</ele>
        <time>2021-04-05T14:48:04Z</time>
      </trkpt>
      <trkpt lat="43.45131" lon="1.50258">
        <ele>321.7</ele>
        <time>2021-04-05T14:48:10Z</time>
      </trkpt>
      <trkpt lat="43.45099" lon="1.50295">
        <ele>320.6</ele>
        <time>2021-04-05T14:48:16Z</time>
      </trkpt>
      <trkpt lat="43.45065" lon="1.50337">
        <ele>319.2</ele>
        <time>2021-04-05T14:48:22Z</time>
      </trkpt>
      <trkpt lat="43.45036" lon="1.50376">
        <ele>317.5</ele>
        <time>2021-04-05T14:48:27Z</time>
      </trkpt>
      <trkpt lat="43.44998" lon="1.50428">
        <ele>314.9</ele>
        <time>2021-04-05T14:48:33Z</time>
      </trkpt>
      <trkpt lat="43.44969" lon="1.5047">
        <ele>312.4</ele>
        <time>2021-04-05T14:48:38Z</time>
      </trkpt>
      <trkpt lat="43.44931" lon="1.50514">
        <ele>311</ele>
        <time>2021-04-05T14:48:44Z</time>
      </trkpt>
      <trkpt lat="43.44898" lon="1.5055">
        <ele>309.4</ele>
        <time>2021-04-05T14:48:50Z</time>
      </trkpt>
      <trkpt lat="43.44865" lon="1.50583">
        <ele>308.7</ele>
        <time>2021-04-05T14:48:56Z</time>
      </trkpt>
      <trkpt lat="43.44836" lon="1.5061">
        <ele>306.9</ele>
        <time>2021-04-05T14:49:01Z</time>
      </trkpt>
      <trkpt lat="43.44803" lon="1.50641">
        <ele>304.2</ele>
        <time>2021-04-05T14:49:07Z</time>
      </trkpt>
      <trkpt lat="43.44772" lon="1.50666">
        <ele>301.4</ele>
        <time>2021-04-05T14:49:12Z</time>
      </trkpt>
      <trkpt lat="43.44745" lon="1.50688">
        <ele>298.2</ele>
        <time>2021-04-05T14:49:17Z</time>
      </trkpt>
      <trkpt lat="43.44719" lon="1.50702">
        <ele>296.5</ele>
        <time>2021-04-05T14:49:23Z</time>
      </trkpt>
      <trkpt lat="43.44694" lon="1.507">
        <ele>294.4</ele>
        <time>2021-04-05T14:49:29Z</time>
      </trkpt>
      <trkpt lat="43.44676" lon="1.50717">
        <ele>289.3</ele>
        <time>2021-04-05T14:49:34Z</time>
      </trkpt>
      <trkpt lat="43.44658" lon="1.50734">
        <ele>285.4</ele>
        <time>2021-04-05T14:49:40Z</time>
      </trkpt>
      <trkpt lat="43.44646" lon="1.50701">
        <ele>280.3</ele>
        <time>2021-04-05T14:49:45Z</time>
      </trkpt>
      <trkpt lat="43.44633" lon="1.50668">
        <ele>274.4</ele>
        <time>2021-04-05T14:49:51Z</time>
      </trkpt>
      <trkpt lat="43.44626" lon="1.50639">
        <ele>270</ele>
        <time>2021-04-05T14:49:57Z</time>
      </trkpt>
      <trkpt lat="43.44607" lon="1.50621">
        <ele>266.3</ele>
        <time>2021-04-05T14:50:02Z</time>
      </trkpt>
      <trkpt lat="43.44583" lon="1.50622">
        <ele>259.8</ele>
        <time>2021-04-05T14:50:07Z</time>
      </trkpt>
      <trkpt lat="43.44546" lon="1.5062">
        <ele>254.1</ele>
        <time>2021-04-05T14:50:13Z</time>
      </trkpt>
      <trkpt lat="43.44511" lon="1.50604">
        <ele>252.9</ele>
        <time>2021-04-05T14:50:19Z</time>
      </trkpt>
      <trkpt lat="43.4449" lon="1.50579">
        <ele>253.3</ele>
        <time>2021-04-05T14:50:25Z</time>
      </trkpt>
      <trkpt lat="43.44476" lon="1.50578">
        <ele>253</ele>
        <time>2021-04-05T14:50:30Z</time>
      </trkpt>
      <trkpt lat="43.44471" lon="1.50589">
        <ele>253.9</ele>
        <time>2021-04-05T14:50:35Z</time>
      </trkpt>
      <trkpt lat="43.44471" lon="1.5062">
        <ele>254.6</ele>
        <time>2021-04-05T14:50:41Z</time>
      </trkpt>
      <trkpt lat="43.44462" lon="1.50653">
        <ele>256.1</ele>
        <time>2021-04-05T14:50:46Z</time>
      </trkpt>
      <trkpt lat="43.44454" lon="1.50685">
        <ele>260</ele>
        <time>2021-04-05T14:50:51Z</time>
      </trkpt>
      <trkpt lat="43.44447" lon="1.5072">
        <ele>263.8</ele>
        <time>2021-04-05T14:50:57Z</time>
      </trkpt>
      <trkpt lat="43.44437" lon="1.50751">
        <ele>267</ele>
        <time>2021-04-05T14:51:02Z</time>
      </trkpt>
      <trkpt lat="43.44424" lon="1.50787">
        <ele>269.3</ele>
        <time>2021-04-05T14:51:08Z</time>
      </trkpt>
      <trkpt lat="43.44414" lon="1.50816">
        <ele>272.1</ele>
        <time>2021-04-05T14:51:13Z</time>
      </trkpt>
      <trkpt lat="43.44401" lon="1.50854">
        <ele>275.9</ele>
        <time>2021-04-05T14:51:19Z</time>
      </trkpt>
      <trkpt lat="43.4439" lon="1.50888">
        <ele>278.3</ele>
        <time>2021-04-05T14:51:25Z</time>
      </trkpt>
      <trkpt lat="43.44381" lon="1.50918">
        <ele>277.9</ele>
        <time>2021-04-05T14:51:30Z</time>
      </trkpt>
      <trkpt lat="43.4437" lon="1.50956">
        <ele>279.8</ele>
        <time>2021-04-05T14:51:36Z</time>
      </trkpt>
      <trkpt lat="43.44363" lon="1.50986">
        <ele>282</ele>
        <time>2021-04-05T14:51:41Z</time>
      </trkpt>
      <trkpt lat="43.44355" lon="1.51021">
        <ele>284.6</ele>
        <time>2021-04-05T14:51:47Z</time>
      </trkpt>
      <trkpt lat="43.44353" lon="1.5104">
        <ele>286.2</ele>
        <time>2021-04-05T14:51:52Z</time>
      </trkpt>
      <trkpt lat="43.44352" lon="1.51059">
        <ele>285.8</ele>
        <time>2021-04-05T14:51:58Z</time>
      </trkpt>
      <trkpt lat="43.44351" lon="1.51092">
        <ele>285.3</ele>
        <time>2021-04-05T14:52:04Z</time>
      </trkpt>
      <trkpt lat="43.4435" lon="1.51131">
        <ele>284.6</ele>
        <time>2021-04-05T14:52:09Z</time>
      </trkpt>
      <trkpt lat="43.44354" lon="1.51168">
        <ele>284.3</ele>
        <time>2021-04-05T14:52:14Z</time>
      </trkpt>
      <trkpt lat="43.4436" lon="1.51218">
        <ele>283</ele>
        <time>2021-04-05T14:52:20Z</time>
      </trkpt>
      <trkpt lat="43.44367" lon="1.5127">
        <ele>282.6</ele>
        <time>2021-04-05T14:52:26Z</time>
      </trkpt>
      <trkpt lat="43.44374" lon="1.51315">
        <ele>283.5</ele>
        <time>2021-04-05T14:52:32Z</time>
      </trkpt>
      <trkpt lat="43.44377" lon="1.51346">
        <ele>284.7</ele>
        <time>2021-04-05T14:52:37Z</time>
      </trkpt>
      <trkpt lat="43.44382" lon="1.51377">
        <ele>286.1</ele>
        <time>2021-04-05T14:52:43Z</time>
      </trkpt>
      <trkpt lat="43.44389" lon="1.51405">
        <ele>288.1</ele>
        <time>2021-04-05T14:52:48Z</time>
      </trkpt>
      <trkpt lat="43.44396" lon="1.51427">
        <ele>288.9</ele>
        <time>2021-04-05T14:52:53Z</time>
      </trkpt>
      <trkpt lat="43.444" lon="1.51454">
        <ele>289.6</ele>
        <time>2021-04-05T14:52:59Z</time>
      </trkpt>
      <trkpt lat="43.44405" lon="1.51473">
        <ele>289.9</ele>
        <time>2021-04-05T14:53:04Z</time>
      </trkpt>
      <trkpt lat="43.44407" lon="1.5149">
        <ele>290.7</ele>
        <time>2021-04-05T14:53:09Z</time>
      </trkpt>
      <trkpt lat="43.44408" lon="1.51516">
        <ele>291.4</ele>
        <time>2021-04-05T14:53:14Z</time>
      </trkpt>
      <trkpt lat="43.44407" lon="1.51543">
        <ele>292.4</ele>
        <time>2021-04-05T14:53:20Z</time>
      </trkpt>
      <trkpt lat="43.44402" lon="1.51566">
        <ele>293</ele>
        <time>2021-04-05T14:53:25Z</time>
      </trkpt>
      <trkpt lat="43.44408" lon="1.51577">
        <ele>293.1</ele>
        <time>2021-04-05T14:53:30Z</time>
      </trkpt>
      <trkpt lat="43.44441" lon="1.51595">
        <ele>292</ele>
        <time>2021-04-05T14:53:36Z</time>
      </trkpt>
      <trkpt lat="43.44477" lon="1.51612">
        <ele>291</ele>
        <time>2021-04-05T14:53:42Z</time>
      </trkpt>
      <trkpt lat="43.44513" lon="1.51621">
        <ele>290.7</ele>
        <time>2021-04-05T14:53:48Z</time>
      </trkpt>
      <trkpt lat="43.4455" lon="1.51626">
        <ele>290.6</ele>
        <time>2021-04-05T14:53:54Z</time>
      </trkpt>
      <trkpt lat="43.44581" lon="1.51632">
        <ele>291.3</ele>
        <time>2021-04-05T14:53:59Z</time>
      </trkpt>
      <trkpt lat="43.44609" lon="1.51641">
        <ele>292.5</ele>
        <time>2021-04-05T14:54:04Z</time>
      </trkpt>
      <trkpt lat="43.44643" lon="1.51661">
        <ele>296.4</ele>
        <time>2021-04-05T14:54:10Z</time>
      </trkpt>
      <trkpt lat="43.44672" lon="1.51681">
        <ele>298.9</ele>
        <time>2021-04-05T14:54:16Z</time>
      </trkpt>
      <trkpt lat="43.44693" lon="1.51694">
        <ele>300.5</ele>
        <time>2021-04-05T14:54:21Z</time>
      </trkpt>
      <trkpt lat="43.44711" lon="1.51712">
        <ele>300.8</ele>
        <time>2021-04-05T14:54:26Z</time>
      </trkpt>
      <trkpt lat="43.44731" lon="1.51731">
        <ele>300.8</ele>
        <time>2021-04-05T14:54:31Z</time>
      </trkpt>
      <trkpt lat="43.44756" lon="1.51749">
        <ele>301.6</ele>
        <time>2021-04-05T14:54:37Z</time>
      </trkpt>
      <trkpt lat="43.44785" lon="1.51761">
        <ele>302.7</ele>
        <time>2021-04-05T14:54:43Z</time>
      </trkpt>
      <trkpt lat="43.44811" lon="1.51767">
        <ele>302.8</ele>
        <time>2021-04-05T14:54:48Z</time>
      </trkpt>
      <trkpt lat="43.44844" lon="1.51774">
        <ele>303.8</ele>
        <time>2021-04-05T14:54:54Z</time>
      </trkpt>
      <trkpt lat="43.44873" lon="1.51779">
        <ele>304.6</ele>
        <time>2021-04-05T14:55:00Z</time>
      </trkpt>
      <trkpt lat="43.44899" lon="1.51784">
        <ele>305.1</ele>
        <time>2021-04-05T14:55:05Z</time>
      </trkpt>
      <trkpt lat="43.44928" lon="1.51789">
        <ele>304.5</ele>
        <time>2021-04-05T14:55:10Z</time>
      </trkpt>
      <trkpt lat="43.44958" lon="1.51797">
        <ele>304.2</ele>
        <time>2021-04-05T14:55:15Z</time>
      </trkpt>
      <trkpt lat="43.44994" lon="1.51809">
        <ele>303.9</ele>
        <time>2021-04-05T14:55:21Z</time>
      </trkpt>
      <trkpt lat="43.45026" lon="1.51828">
        <ele>304.9</ele>
        <time>2021-04-05T14:55:27Z</time>
      </trkpt>
      <trkpt lat="43.45052" lon="1.51843">
        <ele>305.5</ele>
        <time>2021-04-05T14:55:32Z</time>
      </trkpt>
      <trkpt lat="43.45079" lon="1.51857">
        <ele>307.1</ele>
        <time>2021-04-05T14:55:38Z</time>
      </trkpt>
      <trkpt lat="43.45102" lon="1.51867">
        <ele>306.3</ele>
        <time>2021-04-05T14:55:43Z</time>
      </trkpt>
      <trkpt lat="43.4513" lon="1.5188">
        <ele>306.2</ele>
        <time>2021-04-05T14:55:48Z</time>
      </trkpt>
      <trkpt lat="43.45158" lon="1.51902">
        <ele>304.7</ele>
        <time>2021-04-05T14:55:53Z</time>
      </trkpt>
      <trkpt lat="43.45188" lon="1.51933">
        <ele>304.9</ele>
        <time>2021-04-05T14:55:59Z</time>
      </trkpt>
      <trkpt lat="43.45212" lon="1.51958">
        <ele>304.9</ele>
        <time>2021-04-05T14:56:04Z</time>
      </trkpt>
      <trkpt lat="43.45243" lon="1.51986">
        <ele>304.9</ele>
        <time>2021-04-05T14:56:10Z</time>
      </trkpt>
      <trkpt lat="43.45269" lon="1.52007">
        <ele>305.9</ele>
        <time>2021-04-05T14:56:15Z</time>
      </trkpt>
      <trkpt lat="43.45296" lon="1.52028">
        <ele>306.3</ele>
        <time>2021-04-05T14:56:20Z</time>
      </trkpt>
      <trkpt lat="43.45327" lon="1.52047">
        <ele>307.8</ele>
        <time>2021-04-05T14:56:26Z</time>
      </trkpt>
      <trkpt lat="43.45353" lon="1.52058">
        <ele>309.1</ele>
        <time>2021-04-05T14:56:31Z</time>
      </trkpt>
      <trkpt lat="43.45383" lon="1.52071">
        <ele>310.1</ele>
        <time>2021-04-05T14:56:37Z</time>
      </trkpt>
      <trkpt lat="43.45416" lon="1.52084">
        <ele>311.3</ele>
        <time>2021-04-05T14:56:43Z</time>
      </trkpt>
      <trkpt lat="43.45444" lon="1.52096">
        <ele>312.4</ele>
        <time>2021-04-05T14:56:48Z</time>
      </trkpt>
      <trkpt lat="43.45478" lon="1.52108">
        <ele>313.4</ele>
        <time>2021-04-05T14:56:54Z</time>
      </trkpt>
      <trkpt lat="43.45507" lon="1.5212">
        <ele>315</ele>
        <time>2021-04-05T14:56:59Z</time>
      </trkpt>
      <trkpt lat="43.45542" lon="1.52133">
        <ele>317.9</ele>
        <time>2021-04-05T14:57:05Z</time>
      </trkpt>
      <trkpt lat="43.45575" lon="1.52147">
        <ele>320.5</ele>
        <time>2021-04-05T14:57:11Z</time>
      </trkpt>
      <trkpt lat="43.45598" lon="1.52156">
        <ele>322.5</ele>
        <time>2021-04-05T14:57:17Z</time>
      </trkpt>
      <trkpt lat="43.45617" lon="1.52168">
        <ele>325.4</ele>
        <time>2021-04-05T14:57:23Z</time>
      </trkpt>
      <trkpt lat="43.45625" lon="1.52195">
        <ele>326.3</ele>
        <time>2021-04-05T14:57:28Z</time>
      </trkpt>
      <trkpt lat="43.45647" lon="1.5221">
        <ele>326.4</ele>
        <time>2021-04-05T14:57:33Z</time>
      </trkpt>
      <trkpt lat="43.45667" lon="1.52223">
        <ele>327.8</ele>
        <time>2021-04-05T14:57:39Z</time>
      </trkpt>
      <trkpt lat="43.45688" lon="1.52234">
        <ele>329</ele>
        <time>2021-04-05T14:57:44Z</time>
      </trkpt>
      <trkpt lat="43.45706" lon="1.52242">
        <ele>329.3</ele>
        <time>2021-04-05T14:57:50Z</time>
      </trkpt>
      <trkpt lat="43.45724" lon="1.52251">
        <ele>330.7</ele>
        <time>2021-04-05T14:57:55Z</time>
      </trkpt>
      <trkpt lat="43.45738" lon="1.52255">
        <ele>330.3</ele>
        <time>2021-04-05T14:58:00Z</time>
      </trkpt>
      <trkpt lat="43.45739" lon="1.52255">
        <ele>330.7</ele>
        <time>2021-04-05T14:58:05Z</time>
      </trkpt>
      <trkpt lat="43.45738" lon="1.52254">
        <ele>330.6</ele>
        <time>2021-04-05T14:58:11Z</time>
      </trkpt>
      <trkpt lat="43.45738" lon="1.52254">
        <ele>330.9</ele>
        <time>2021-04-05T14:58:17Z</time>
      </trkpt>
      <trkpt lat="43.45739" lon="1.52258">
        <ele>330.8</ele>
        <time>2021-04-05T14:58:23Z</time>
      </trkpt>
      <trkpt lat="43.45732" lon="1.52273">
        <ele>330.3</ele>
        <time>2021-04-05T14:58:29Z</time>
      </trkpt>
      <trkpt lat="43.45735" lon="1.52273">
        <ele>331.1</ele>
        <time>2021-04-05T14:58:35Z</time>
      </trkpt>
      <trkpt lat="43.45735" lon="1.52273">
        <ele>330.9</ele>
        <time>2021-04-05T14:58:40Z</time>
      </trkpt>
      <trkpt lat="43.45735" lon="1.52273">
        <ele>331</ele>
        <time>2021-04-05T14:58:45Z</time>
      </trkpt>
      <trkpt lat="43.45734" lon="1.52272">
        <ele>331.2</ele>
        <time>2021-04-05T14:58:51Z</time>
      </trkpt>
      <trkpt lat="43.45734" lon="1.52272">
        <ele>331.1</ele>
        <time>2021-04-05T14:58:57Z</time>
      </trkpt>
      <trkpt lat="43.45734" lon="1.52272">
        <ele>331.6</ele>
        <time>2021-04-05T14:59:02Z</time>
      </trkpt>
      <trkpt lat="43.45734" lon="1.52272">
        <ele>331.3</ele>
        <time>2021-04-05T14:59:07Z</time>
      </trkpt>
      <trkpt lat="43.45734" lon="1.52272">
        <ele>330.5</ele>
        <time>2021-04-05T14:59:13Z</time>
      </trkpt>
      <trkpt lat="43.45734" lon="1.52272">
        <ele>331</ele>
        <time>2021-04-05T14:59:18Z</time>
      </trkpt>
      <trkpt lat="43.45734" lon="1.52272">
        <ele>330.9</ele>
        <time>2021-04-05T14:59:24Z</time>
      </trkpt>
      <trkpt lat="43.45734" lon="1.52272">
        <ele>330.2</ele>
        <time>2021-04-05T14:59:29Z</time>
      </trkpt>
      <trkpt lat="43.45742" lon="1.52285">
        <ele>330.7</ele>
        <time>2021-04-05T14:59:35Z</time>
      </trkpt>
      <trkpt lat="43.45758" lon="1.52329">
        <ele>324.2</ele>
        <time>2021-04-05T14:59:41Z</time>
      </trkpt>
      <trkpt lat="43.45771" lon="1.52363">
        <ele>320.8</ele>
        <time>2021-04-05T14:59:46Z</time>
      </trkpt>
      <trkpt lat="43.4581" lon="1.52409">
        <ele>310.7</ele>
        <time>2021-04-05T14:59:52Z</time>
      </trkpt>
      <trkpt lat="43.45849" lon="1.52454">
        <ele>304.6</ele>
        <time>2021-04-05T14:59:58Z</time>
      </trkpt>
      <trkpt lat="43.45883" lon="1.52494">
        <ele>298.2</ele>
        <time>2021-04-05T15:00:03Z</time>
      </trkpt>
      <trkpt lat="43.45911" lon="1.52531">
        <ele>292.1</ele>
        <time>2021-04-05T15:00:08Z</time>
      </trkpt>
      <trkpt lat="43.45923" lon="1.52555">
        <ele>291</ele>
        <time>2021-04-05T15:00:13Z</time>
      </trkpt>
      <trkpt lat="43.45946" lon="1.52583">
        <ele>291</ele>
        <time>2021-04-05T15:00:19Z</time>
      </trkpt>
      <trkpt lat="43.45971" lon="1.52608">
        <ele>291.4</ele>
        <time>2021-04-05T15:00:24Z</time>
      </trkpt>
      <trkpt lat="43.45988" lon="1.52619">
        <ele>290</ele>
        <time>2021-04-05T15:00:30Z</time>
      </trkpt>
      <trkpt lat="43.46001" lon="1.52613">
        <ele>291.1</ele>
        <time>2021-04-05T15:00:35Z</time>
      </trkpt>
      <trkpt lat="43.46011" lon="1.52615">
        <ele>289.3</ele>
        <time>2021-04-05T15:00:40Z</time>
      </trkpt>
      <trkpt lat="43.46028" lon="1.52625">
        <ele>287.7</ele>
        <time>2021-04-05T15:00:46Z</time>
      </trkpt>
      <trkpt lat="43.46045" lon="1.5263">
        <ele>286.2</ele>
        <time>2021-04-05T15:00:51Z</time>
      </trkpt>
      <trkpt lat="43.46065" lon="1.52639">
        <ele>283.9</ele>
        <time>2021-04-05T15:00:57Z</time>
      </trkpt>
      <trkpt lat="43.46082" lon="1.52641">
        <ele>278.3</ele>
        <time>2021-04-05T15:01:02Z</time>
      </trkpt>
      <trkpt lat="43.46099" lon="1.52651">
        <ele>273.4</ele>
        <time>2021-04-05T15:01:07Z</time>
      </trkpt>
      <trkpt lat="43.46122" lon="1.52658">
        <ele>270.8</ele>
        <time>2021-04-05T15:01:13Z</time>
      </trkpt>
      <trkpt lat="43.46142" lon="1.52669">
        <ele>268.7</ele>
        <time>2021-04-05T15:01:19Z</time>
      </trkpt>
      <trkpt lat="43.46168" lon="1.52676">
        <ele>264.4</ele>
        <time>2021-04-05T15:01:24Z</time>
      </trkpt>
      <trkpt lat="43.46196" lon="1.52688">
        <ele>261</ele>
        <time>2021-04-05T15:01:29Z</time>
      </trkpt>
      <trkpt lat="43.46227" lon="1.52702">
        <ele>259</ele>
        <time>2021-04-05T15:01:34Z</time>
      </trkpt>
      <trkpt lat="43.46247" lon="1.52719">
        <ele>255.8</ele>
        <time>2021-04-05T15:01:40Z</time>
      </trkpt>
      <trkpt lat="43.46274" lon="1.52729">
        <ele>251.1</ele>
        <time>2021-04-05T15:01:45Z</time>
      </trkpt>
      <trkpt lat="43.46293" lon="1.52782">
        <ele>245.4</ele>
        <time>2021-04-05T15:01:51Z</time>
      </trkpt>
      <trkpt lat="43.46298" lon="1.52797">
        <ele>246.5</ele>
        <time>2021-04-05T15:01:57Z</time>
      </trkpt>
      <trkpt lat="43.46301" lon="1.52798">
        <ele>246</ele>
        <time>2021-04-05T15:02:03Z</time>
      </trkpt>
      <trkpt lat="43.463" lon="1.52798">
        <ele>246.9</ele>
        <time>2021-04-05T15:02:08Z</time>
      </trkpt>
      <trkpt lat="43.463" lon="1.52798">
        <ele>245.7</ele>
        <time>2021-04-05T15:02:14Z</time>
      </trkpt>
      <trkpt lat="43.463" lon="1.52798">
        <ele>246.5</ele>
        <time>2021-04-05T15:02:19Z</time>
      </trkpt>
      <trkpt lat="43.463" lon="1.52798">
        <ele>246.6</ele>
        <time>2021-04-05T15:02:24Z</time>
      </trkpt>
      <trkpt lat="43.463" lon="1.52798">
        <ele>246.3</ele>
        <time>2021-04-05T15:02:29Z</time>
      </trkpt>
      <trkpt lat="43.46309" lon="1.52792">
        <ele>246.5</ele>
        <time>2021-04-05T15:02:35Z</time>
      </trkpt>
      <trkpt lat="43.46317" lon="1.5278">
        <ele>246</ele>
        <time>2021-04-05T15:02:40Z</time>
      </trkpt>
      <trkpt lat="43.46321" lon="1.52749">
        <ele>247.8</ele>
        <time>2021-04-05T15:02:45Z</time>
      </trkpt>
      <trkpt lat="43.4633" lon="1.52717">
        <ele>250.8</ele>
        <time>2021-04-05T15:02:51Z</time>
      </trkpt>
      <trkpt lat="43.46339" lon="1.52687">
        <ele>253.8</ele>
        <time>2021-04-05T15:02:56Z</time>
      </trkpt>
      <trkpt lat="43.4635" lon="1.52662">
        <ele>257.3</ele>
        <time>2021-04-05T15:03:01Z</time>
      </trkpt>
      <trkpt lat="43.46361" lon="1.52636">
        <ele>261.5</ele>
        <time>2021-04-05T15:03:06Z</time>
      </trkpt>
      <trkpt lat="43.46375" lon="1.52612">
        <ele>264.8</ele>
        <time>2021-04-05T15:03:12Z</time>
      </trkpt>
      <trkpt lat="43.46391" lon="1.52593">
        <ele>268</ele>
        <time>2021-04-05T15:03:17Z</time>
      </trkpt>
      <trkpt lat="43.46409" lon="1.52573">
        <ele>272.2</ele>
        <time>2021-04-05T15:03:23Z</time>
      </trkpt>
      <trkpt lat="43.46425" lon="1.52557">
        <ele>276.5</ele>
        <time>2021-04-05T15:03:28Z</time>
      </trkpt>
      <trkpt lat="43.46441" lon="1.52542">
        <ele>278.8</ele>
        <time>2021-04-05T15:03:33Z</time>
      </trkpt>
      <trkpt lat="43.46458" lon="1.52525">
        <ele>281.3</ele>
        <time>2021-04-05T15:03:38Z</time>
      </trkpt>
      <trkpt lat="43.46477" lon="1.52506">
        <ele>284.9</ele>
        <time>2021-04-05T15:03:44Z</time>
      </trkpt>
      <trkpt lat="43.46492" lon="1.52487">
        <ele>287</ele>
        <time>2021-04-05T15:03:50Z</time>
      </trkpt>
      <trkpt lat="43.46507" lon="1.52473">
        <ele>289.6</ele>
        <time>2021-04-05T15:03:55Z</time>
      </trkpt>
      <trkpt lat="43.46522" lon="1.52457">
        <ele>293.1</ele>
        <time>2021-04-05T15:04:00Z</time>
      </trkpt>
      <trkpt lat="43.46537" lon="1.52441">
        <ele>295.1</ele>
        <time>2021-04-05T15:04:05Z</time>
      </trkpt>
      <trkpt lat="43.4655" lon="1.52427">
        <ele>297.5</ele>
        <time>2021-04-05T15:04:11Z</time>
      </trkpt>
      <trkpt lat="43.46565" lon="1.52415">
        <ele>299.8</ele>
        <time>2021-04-05T15:04:17Z</time>
      </trkpt>
      <trkpt lat="43.46577" lon="1.52403">
        <ele>301.8</ele>
        <time>2021-04-05T15:04:22Z</time>
      </trkpt>
      <trkpt lat="43.4659" lon="1.52391">
        <ele>304.8</ele>
        <time>2021-04-05T15:04:28Z</time>
      </trkpt>
      <trkpt lat="43.46601" lon="1.52378">
        <ele>306.6</ele>
        <time>2021-04-05T15:04:33Z</time>
      </trkpt>
      <trkpt lat="43.46609" lon="1.5236">
        <ele>308.4</ele>
        <time>2021-04-05T15:04:38Z</time>
      </trkpt>
      <trkpt lat="43.46618" lon="1.52343">
        <ele>309</ele>
        <time>2021-04-05T15:04:43Z</time>
      </trkpt>
      <trkpt lat="43.46623" lon="1.52327">
        <ele>311.3</ele>
        <time>2021-04-05T15:04:48Z</time>
      </trkpt>
      <trkpt lat="43.46629" lon="1.52309">
        <ele>312.4</ele>
        <time>2021-04-05T15:04:53Z</time>
      </trkpt>
      <trkpt lat="43.46635" lon="1.52289">
        <ele>314.3</ele>
        <time>2021-04-05T15:04:59Z</time>
      </trkpt>
      <trkpt lat="43.46638" lon="1.52274">
        <ele>315.1</ele>
        <time>2021-04-05T15:05:05Z</time>
      </trkpt>
      <trkpt lat="43.46639" lon="1.52275">
        <ele>315</ele>
        <time>2021-04-05T15:05:10Z</time>
      </trkpt>
      <trkpt lat="43.46639" lon="1.52275">
        <ele>315.6</ele>
        <time>2021-04-05T15:05:15Z</time>
      </trkpt>
      <trkpt lat="43.46639" lon="1.52275">
        <ele>315.2</ele>
        <time>2021-04-05T15:05:20Z</time>
      </trkpt>
      <trkpt lat="43.46638" lon="1.52275">
        <ele>315.9</ele>
        <time>2021-04-05T15:05:25Z</time>
      </trkpt>
      <trkpt lat="43.46638" lon="1.52276">
        <ele>315.3</ele>
        <time>2021-04-05T15:05:30Z</time>
      </trkpt>
      <trkpt lat="43.46638" lon="1.52276">
        <ele>316</ele>
        <time>2021-04-05T15:05:36Z</time>
      </trkpt>
      <trkpt lat="43.46639" lon="1.52274">
        <ele>315.1</ele>
        <time>2021-04-05T15:05:42Z</time>
      </trkpt>
      <trkpt lat="43.46634" lon="1.52255">
        <ele>315</ele>
        <time>2021-04-05T15:05:47Z</time>
      </trkpt>
      <trkpt lat="43.46629" lon="1.52231">
        <ele>315</ele>
        <time>2021-04-05T15:05:53Z</time>
      </trkpt>
      <trkpt lat="43.46623" lon="1.52194">
        <ele>314.3</ele>
        <time>2021-04-05T15:05:59Z</time>
      </trkpt>
      <trkpt lat="43.46616" lon="1.5215">
        <ele>312.4</ele>
        <time>2021-04-05T15:06:05Z</time>
      </trkpt>
      <trkpt lat="43.46605" lon="1.52103">
        <ele>311.6</ele>
        <time>2021-04-05T15:06:11Z</time>
      </trkpt>
      <trkpt lat="43.46589" lon="1.52063">
        <ele>310.1</ele>
        <time>2021-04-05T15:06:17Z</time>
      </trkpt>
      <trkpt lat="43.46576" lon="1.52036">
        <ele>310.6</ele>
        <time>2021-04-05T15:06:22Z</time>
      </trkpt>
      <trkpt lat="43.4656" lon="1.52002">
        <ele>310.4</ele>
        <time>2021-04-05T15:06:28Z</time>
      </trkpt>
      <trkpt lat="43.46566" lon="1.51976">
        <ele>310.5</ele>
        <time>2021-04-05T15:06:33Z</time>
      </trkpt>
      <trkpt lat="43.46574" lon="1.51937">
        <ele>309.4</ele>
        <time>2021-04-05T15:06:39Z</time>
      </trkpt>
      <trkpt lat="43.46583" lon="1.51892">
        <ele>308</ele>
        <time>2021-04-05T15:06:45Z</time>
      </trkpt>
      <trkpt lat="43.46591" lon="1.51852">
        <ele>305.9</ele>
        <time>2021-04-05T15:06:50Z</time>
      </trkpt>
      <trkpt lat="43.46601" lon="1.51802">
        <ele>305</ele>
        <time>2021-04-05T15:06:56Z</time>
      </trkpt>
      <trkpt lat="43.46614" lon="1.51762">
        <ele>302.8</ele>
        <time>2021-04-05T15:07:01Z</time>
      </trkpt>
      <trkpt lat="43.46637" lon="1.51735">
        <ele>301.4</ele>
        <time>2021-04-05T15:07:07Z</time>
      </trkpt>
      <trkpt lat="43.46651" lon="1.51715">
        <ele>300.7</ele>
        <time>2021-04-05T15:07:13Z</time>
      </trkpt>
      <trkpt lat="43.46657" lon="1.51672">
        <ele>296.9</ele>
        <time>2021-04-05T15:07:19Z</time>
      </trkpt>
      <trkpt lat="43.46669" lon="1.51615">
        <ele>294.6</ele>
        <time>2021-04-05T15:07:25Z</time>
      </trkpt>
      <trkpt lat="43.46681" lon="1.51558">
        <ele>291.6</ele>
        <time>2021-04-05T15:07:31Z</time>
      </trkpt>
      <trkpt lat="43.46692" lon="1.51507">
        <ele>289.8</ele>
        <time>2021-04-05T15:07:37Z</time>
      </trkpt>
      <trkpt lat="43.46703" lon="1.51452">
        <ele>286.6</ele>
        <time>2021-04-05T15:07:43Z</time>
      </trkpt>
      <trkpt lat="43.46714" lon="1.51409">
        <ele>285.6</ele>
        <time>2021-04-05T15:07:48Z</time>
      </trkpt>
      <trkpt lat="43.46729" lon="1.51364">
        <ele>285.5</ele>
        <time>2021-04-05T15:07:54Z</time>
      </trkpt>
      <trkpt lat="43.4675" lon="1.51321">
        <ele>283.3</ele>
        <time>2021-04-05T15:08:00Z</time>
      </trkpt>
      <trkpt lat="43.46772" lon="1.51278">
        <ele>282.3</ele>
        <time>2021-04-05T15:08:06Z</time>
      </trkpt>
      <trkpt lat="43.46793" lon="1.51236">
        <ele>281.3</ele>
        <time>2021-04-05T15:08:12Z</time>
      </trkpt>
      <trkpt lat="43.46812" lon="1.51202">
        <ele>280</ele>
        <time>2021-04-05T15:08:17Z</time>
      </trkpt>
      <trkpt lat="43.46833" lon="1.51155">
        <ele>277.5</ele>
        <time>2021-04-05T15:08:23Z</time>
      </trkpt>
      <trkpt lat="43.46849" lon="1.51114">
        <ele>275.1</ele>
        <time>2021-04-05T15:08:28Z</time>
      </trkpt>
      <trkpt lat="43.46859" lon="1.51065">
        <ele>271.5</ele>
        <time>2021-04-05T15:08:33Z</time>
      </trkpt>
      <trkpt lat="43.46876" lon="1.51008">
        <ele>269</ele>
        <time>2021-04-05T15:08:39Z</time>
      </trkpt>
      <trkpt lat="43.46889" lon="1.50974">
        <ele>268.2</ele>
        <time>2021-04-05T15:08:44Z</time>
      </trkpt>
      <trkpt lat="43.46899" lon="1.50943">
        <ele>267.8</ele>
        <time>2021-04-05T15:08:49Z</time>
      </trkpt>
      <trkpt lat="43.46914" lon="1.50897">
        <ele>266.1</ele>
        <time>2021-04-05T15:08:55Z</time>
      </trkpt>
      <trkpt lat="43.46935" lon="1.50853">
        <ele>265.4</ele>
        <time>2021-04-05T15:09:01Z</time>
      </trkpt>
      <trkpt lat="43.46952" lon="1.5082">
        <ele>265.4</ele>
        <time>2021-04-05T15:09:06Z</time>
      </trkpt>
      <trkpt lat="43.46967" lon="1.50774">
        <ele>264.7</ele>
        <time>2021-04-05T15:09:12Z</time>
      </trkpt>
      <trkpt lat="43.4698" lon="1.50735">
        <ele>264.5</ele>
        <time>2021-04-05T15:09:18Z</time>
      </trkpt>
      <trkpt lat="43.46993" lon="1.50701">
        <ele>265.3</ele>
        <time>2021-04-05T15:09:23Z</time>
      </trkpt>
      <trkpt lat="43.47009" lon="1.50663">
        <ele>265.3</ele>
        <time>2021-04-05T15:09:29Z</time>
      </trkpt>
      <trkpt lat="43.47025" lon="1.50627">
        <ele>263.7</ele>
        <time>2021-04-05T15:09:35Z</time>
      </trkpt>
      <trkpt lat="43.47033" lon="1.50599">
        <ele>263.4</ele>
        <time>2021-04-05T15:09:41Z</time>
      </trkpt>
      <trkpt lat="43.47043" lon="1.50557">
        <ele>261.7</ele>
        <time>2021-04-05T15:09:47Z</time>
      </trkpt>
      <trkpt lat="43.4705" lon="1.5052">
        <ele>261.8</ele>
        <time>2021-04-05T15:09:52Z</time>
      </trkpt>
      <trkpt lat="43.47056" lon="1.50483">
        <ele>261.7</ele>
        <time>2021-04-05T15:09:57Z</time>
      </trkpt>
      <trkpt lat="43.47065" lon="1.50445">
        <ele>261.4</ele>
        <time>2021-04-05T15:10:02Z</time>
      </trkpt>
      <trkpt lat="43.47075" lon="1.50401">
        <ele>261</ele>
        <time>2021-04-05T15:10:08Z</time>
      </trkpt>
      <trkpt lat="43.47086" lon="1.50356">
        <ele>260.6</ele>
        <time>2021-04-05T15:10:14Z</time>
      </trkpt>
      <trkpt lat="43.47096" lon="1.50314">
        <ele>260.1</ele>
        <time>2021-04-05T15:10:20Z</time>
      </trkpt>
      <trkpt lat="43.47101" lon="1.50272">
        <ele>259.6</ele>
        <time>2021-04-05T15:10:26Z</time>
      </trkpt>
      <trkpt lat="43.47093" lon="1.50234">
        <ele>259.5</ele>
        <time>2021-04-05T15:10:31Z</time>
      </trkpt>
      <trkpt lat="43.47091" lon="1.50186">
        <ele>258.7</ele>
        <time>2021-04-05T15:10:37Z</time>
      </trkpt>
      <trkpt lat="43.47091" lon="1.50137">
        <ele>259.6</ele>
        <time>2021-04-05T15:10:43Z</time>
      </trkpt>
      <trkpt lat="43.4709" lon="1.50097">
        <ele>258.2</ele>
        <time>2021-04-05T15:10:48Z</time>
      </trkpt>
      <trkpt lat="43.4709" lon="1.50056">
        <ele>256.5</ele>
        <time>2021-04-05T15:10:53Z</time>
      </trkpt>
      <trkpt lat="43.4709" lon="1.50015">
        <ele>257.3</ele>
        <time>2021-04-05T15:10:58Z</time>
      </trkpt>
      <trkpt lat="43.47088" lon="1.49976">
        <ele>255.6</ele>
        <time>2021-04-05T15:11:03Z</time>
      </trkpt>
      <trkpt lat="43.47066" lon="1.49944">
        <ele>256.2</ele>
        <time>2021-04-05T15:11:09Z</time>
      </trkpt>
      <trkpt lat="43.47068" lon="1.49903">
        <ele>254.9</ele>
        <time>2021-04-05T15:11:14Z</time>
      </trkpt>
      <trkpt lat="43.4707" lon="1.49857">
        <ele>254.9</ele>
        <time>2021-04-05T15:11:20Z</time>
      </trkpt>
      <trkpt lat="43.47069" lon="1.49818">
        <ele>254.6</ele>
        <time>2021-04-05T15:11:25Z</time>
      </trkpt>
      <trkpt lat="43.47072" lon="1.49771">
        <ele>254.7</ele>
        <time>2021-04-05T15:11:31Z</time>
      </trkpt>
      <trkpt lat="43.47076" lon="1.4973">
        <ele>253.9</ele>
        <time>2021-04-05T15:11:36Z</time>
      </trkpt>
      <trkpt lat="43.47079" lon="1.49678">
        <ele>253.6</ele>
        <time>2021-04-05T15:11:42Z</time>
      </trkpt>
      <trkpt lat="43.47082" lon="1.49642">
        <ele>254.1</ele>
        <time>2021-04-05T15:11:47Z</time>
      </trkpt>
      <trkpt lat="43.47087" lon="1.4961">
        <ele>254.4</ele>
        <time>2021-04-05T15:11:52Z</time>
      </trkpt>
      <trkpt lat="43.47092" lon="1.49565">
        <ele>253.2</ele>
        <time>2021-04-05T15:11:58Z</time>
      </trkpt>
      <trkpt lat="43.47101" lon="1.4954">
        <ele>253.6</ele>
        <time>2021-04-05T15:12:03Z</time>
      </trkpt>
      <trkpt lat="43.47135" lon="1.49545">
        <ele>254.3</ele>
        <time>2021-04-05T15:12:09Z</time>
      </trkpt>
      <trkpt lat="43.47154" lon="1.49552">
        <ele>255.9</ele>
        <time>2021-04-05T15:12:15Z</time>
      </trkpt>
      <trkpt lat="43.47178" lon="1.49562">
        <ele>259.4</ele>
        <time>2021-04-05T15:12:20Z</time>
      </trkpt>
      <trkpt lat="43.47201" lon="1.49569">
        <ele>263.7</ele>
        <time>2021-04-05T15:12:25Z</time>
      </trkpt>
      <trkpt lat="43.47226" lon="1.49572">
        <ele>268.3</ele>
        <time>2021-04-05T15:12:31Z</time>
      </trkpt>
      <trkpt lat="43.47247" lon="1.49577">
        <ele>271</ele>
        <time>2021-04-05T15:12:36Z</time>
      </trkpt>
      <trkpt lat="43.47265" lon="1.49569">
        <ele>273.1</ele>
        <time>2021-04-05T15:12:41Z</time>
      </trkpt>
      <trkpt lat="43.4728" lon="1.49552">
        <ele>278.2</ele>
        <time>2021-04-05T15:12:46Z</time>
      </trkpt>
      <trkpt lat="43.47295" lon="1.49536">
        <ele>284.5</ele>
        <time>2021-04-05T15:12:52Z</time>
      </trkpt>
      <trkpt lat="43.47311" lon="1.49522">
        <ele>286.3</ele>
        <time>2021-04-05T15:12:57Z</time>
      </trkpt>
      <trkpt lat="43.4732" lon="1.49513">
        <ele>286</ele>
        <time>2021-04-05T15:13:02Z</time>
      </trkpt>
      <trkpt lat="43.47328" lon="1.49488">
        <ele>287.6</ele>
        <time>2021-04-05T15:13:08Z</time>
      </trkpt>
      <trkpt lat="43.47339" lon="1.49496">
        <ele>288.8</ele>
        <time>2021-04-05T15:13:13Z</time>
      </trkpt>
      <trkpt lat="43.47352" lon="1.49507">
        <ele>290.5</ele>
        <time>2021-04-05T15:13:18Z</time>
      </trkpt>
      <trkpt lat="43.47373" lon="1.49508">
        <ele>290.3</ele>
        <time>2021-04-05T15:13:24Z</time>
      </trkpt>
      <trkpt lat="43.47396" lon="1.49507">
        <ele>289.5</ele>
        <time>2021-04-05T15:13:29Z</time>
      </trkpt>
      <trkpt lat="43.47431" lon="1.4951">
        <ele>286.2</ele>
        <time>2021-04-05T15:13:35Z</time>
      </trkpt>
      <trkpt lat="43.47459" lon="1.49515">
        <ele>284.7</ele>
        <time>2021-04-05T15:13:40Z</time>
      </trkpt>
      <trkpt lat="43.47488" lon="1.49514">
        <ele>285.2</ele>
        <time>2021-04-05T15:13:45Z</time>
      </trkpt>
      <trkpt lat="43.47519" lon="1.49498">
        <ele>286.2</ele>
        <time>2021-04-05T15:13:51Z</time>
      </trkpt>
      <trkpt lat="43.47548" lon="1.49474">
        <ele>287.1</ele>
        <time>2021-04-05T15:13:57Z</time>
      </trkpt>
      <trkpt lat="43.47569" lon="1.49453">
        <ele>288.9</ele>
        <time>2021-04-05T15:14:02Z</time>
      </trkpt>
      <trkpt lat="43.47593" lon="1.49428">
        <ele>290.7</ele>
        <time>2021-04-05T15:14:08Z</time>
      </trkpt>
      <trkpt lat="43.47611" lon="1.49405">
        <ele>292.6</ele>
        <time>2021-04-05T15:14:13Z</time>
      </trkpt>
      <trkpt lat="43.47628" lon="1.49373">
        <ele>295.3</ele>
        <time>2021-04-05T15:14:19Z</time>
      </trkpt>
      <trkpt lat="43.47639" lon="1.49341">
        <ele>296.4</ele>
        <time>2021-04-05T15:14:25Z</time>
      </trkpt>
      <trkpt lat="43.47644" lon="1.49313">
        <ele>297.8</ele>
        <time>2021-04-05T15:14:30Z</time>
      </trkpt>
      <trkpt lat="43.47652" lon="1.49287">
        <ele>298.4</ele>
        <time>2021-04-05T15:14:36Z</time>
      </trkpt>
      <trkpt lat="43.47656" lon="1.49255">
        <ele>297.6</ele>
        <time>2021-04-05T15:14:41Z</time>
      </trkpt>
      <trkpt lat="43.47662" lon="1.49218">
        <ele>296.6</ele>
        <time>2021-04-05T15:14:46Z</time>
      </trkpt>
      <trkpt lat="43.47676" lon="1.4917">
        <ele>294.4</ele>
        <time>2021-04-05T15:14:52Z</time>
      </trkpt>
      <trkpt lat="43.477" lon="1.4914">
        <ele>293.6</ele>
        <time>2021-04-05T15:14:57Z</time>
      </trkpt>
      <trkpt lat="43.47724" lon="1.49114">
        <ele>292.6</ele>
        <time>2021-04-05T15:15:02Z</time>
      </trkpt>
      <trkpt lat="43.47757" lon="1.49087">
        <ele>291.2</ele>
        <time>2021-04-05T15:15:08Z</time>
      </trkpt>
      <trkpt lat="43.47783" lon="1.49061">
        <ele>290.2</ele>
        <time>2021-04-05T15:15:13Z</time>
      </trkpt>
      <trkpt lat="43.47811" lon="1.49027">
        <ele>289.2</ele>
        <time>2021-04-05T15:15:19Z</time>
      </trkpt>
      <trkpt lat="43.47837" lon="1.48987">
        <ele>287.9</ele>
        <time>2021-04-05T15:15:25Z</time>
      </trkpt>
      <trkpt lat="43.4786" lon="1.48948">
        <ele>287.8</ele>
        <time>2021-04-05T15:15:31Z</time>
      </trkpt>
      <trkpt lat="43.47882" lon="1.48914">
        <ele>286.6</ele>
        <time>2021-04-05T15:15:37Z</time>
      </trkpt>
      <trkpt lat="43.47904" lon="1.48883">
        <ele>286.1</ele>
        <time>2021-04-05T15:15:43Z</time>
      </trkpt>
      <trkpt lat="43.47923" lon="1.48855">
        <ele>285.8</ele>
        <time>2021-04-05T15:15:48Z</time>
      </trkpt>
      <trkpt lat="43.47947" lon="1.48826">
        <ele>285.7</ele>
        <time>2021-04-05T15:15:54Z</time>
      </trkpt>
      <trkpt lat="43.47971" lon="1.48797">
        <ele>285.7</ele>
        <time>2021-04-05T15:16:00Z</time>
      </trkpt>
      <trkpt lat="43.47994" lon="1.48768">
        <ele>285.8</ele>
        <time>2021-04-05T15:16:06Z</time>
      </trkpt>
      <trkpt lat="43.48012" lon="1.48745">
        <ele>285.2</ele>
        <time>2021-04-05T15:16:11Z</time>
      </trkpt>
      <trkpt lat="43.48036" lon="1.48717">
        <ele>285.2</ele>
        <time>2021-04-05T15:16:17Z</time>
      </trkpt>
      <trkpt lat="43.48066" lon="1.48702">
        <ele>283.8</ele>
        <time>2021-04-05T15:16:22Z</time>
      </trkpt>
      <trkpt lat="43.48114" lon="1.48689">
        <ele>278.3</ele>
        <time>2021-04-05T15:16:28Z</time>
      </trkpt>
      <trkpt lat="43.4817" lon="1.4867">
        <ele>272.5</ele>
        <time>2021-04-05T15:16:34Z</time>
      </trkpt>
      <trkpt lat="43.48232" lon="1.4865">
        <ele>262.5</ele>
        <time>2021-04-05T15:16:40Z</time>
      </trkpt>
      <trkpt lat="43.48292" lon="1.4863">
        <ele>254.9</ele>
        <time>2021-04-05T15:16:45Z</time>
      </trkpt>
      <trkpt lat="43.48356" lon="1.48595">
        <ele>253.2</ele>
        <time>2021-04-05T15:16:51Z</time>
      </trkpt>
      <trkpt lat="43.48382" lon="1.48582">
        <ele>259.6</ele>
        <time>2021-04-05T15:16:56Z</time>
      </trkpt>
      <trkpt lat="43.48411" lon="1.48568">
        <ele>265.2</ele>
        <time>2021-04-05T15:17:02Z</time>
      </trkpt>
      <trkpt lat="43.48436" lon="1.48556">
        <ele>268.7</ele>
        <time>2021-04-05T15:17:07Z</time>
      </trkpt>
      <trkpt lat="43.48463" lon="1.48543">
        <ele>273.2</ele>
        <time>2021-04-05T15:17:13Z</time>
      </trkpt>
      <trkpt lat="43.48487" lon="1.48532">
        <ele>278.1</ele>
        <time>2021-04-05T15:17:19Z</time>
      </trkpt>
      <trkpt lat="43.4851" lon="1.48512">
        <ele>281.7</ele>
        <time>2021-04-05T15:17:25Z</time>
      </trkpt>
      <trkpt lat="43.4853" lon="1.48507">
        <ele>286.8</ele>
        <time>2021-04-05T15:17:30Z</time>
      </trkpt>
      <trkpt lat="43.48549" lon="1.48501">
        <ele>289.8</ele>
        <time>2021-04-05T15:17:35Z</time>
      </trkpt>
      <trkpt lat="43.48568" lon="1.4849">
        <ele>292.7</ele>
        <time>2021-04-05T15:17:40Z</time>
      </trkpt>
      <trkpt lat="43.48585" lon="1.48472">
        <ele>295.4</ele>
        <time>2021-04-05T15:17:45Z</time>
      </trkpt>
      <trkpt lat="43.48601" lon="1.48446">
        <ele>297.6</ele>
        <time>2021-04-05T15:17:51Z</time>
      </trkpt>
      <trkpt lat="43.48617" lon="1.48426">
        <ele>299.7</ele>
        <time>2021-04-05T15:17:56Z</time>
      </trkpt>
      <trkpt lat="43.48634" lon="1.48399">
        <ele>303.2</ele>
        <time>2021-04-05T15:18:02Z</time>
      </trkpt>
      <trkpt lat="43.48652" lon="1.48372">
        <ele>307.3</ele>
        <time>2021-04-05T15:18:08Z</time>
      </trkpt>
      <trkpt lat="43.48665" lon="1.48352">
        <ele>310.1</ele>
        <time>2021-04-05T15:18:13Z</time>
      </trkpt>
      <trkpt lat="43.48677" lon="1.48339">
        <ele>313.5</ele>
        <time>2021-04-05T15:18:19Z</time>
      </trkpt>
      <trkpt lat="43.48673" lon="1.48374">
        <ele>314.2</ele>
        <time>2021-04-05T15:18:24Z</time>
      </trkpt>
      <trkpt lat="43.48669" lon="1.48426">
        <ele>315.7</ele>
        <time>2021-04-05T15:18:30Z</time>
      </trkpt>
      <trkpt lat="43.48671" lon="1.48475">
        <ele>317.9</ele>
        <time>2021-04-05T15:18:36Z</time>
      </trkpt>
      <trkpt lat="43.48679" lon="1.48511">
        <ele>319.2</ele>
        <time>2021-04-05T15:18:41Z</time>
      </trkpt>
      <trkpt lat="43.48693" lon="1.48552">
        <ele>319.5</ele>
        <time>2021-04-05T15:18:47Z</time>
      </trkpt>
      <trkpt lat="43.48716" lon="1.48597">
        <ele>317.6</ele>
        <time>2021-04-05T15:18:53Z</time>
      </trkpt>
      <trkpt lat="43.48733" lon="1.4865">
        <ele>315.9</ele>
        <time>2021-04-05T15:18:59Z</time>
      </trkpt>
      <trkpt lat="43.48732" lon="1.48697">
        <ele>315</ele>
        <time>2021-04-05T15:19:04Z</time>
      </trkpt>
      <trkpt lat="43.48732" lon="1.48742">
        <ele>313.3</ele>
        <time>2021-04-05T15:19:09Z</time>
      </trkpt>
      <trkpt lat="43.48766" lon="1.48772">
        <ele>311</ele>
        <time>2021-04-05T15:19:15Z</time>
      </trkpt>
      <trkpt lat="43.48796" lon="1.4879">
        <ele>310.1</ele>
        <time>2021-04-05T15:19:20Z</time>
      </trkpt>
      <trkpt lat="43.48827" lon="1.48809">
        <ele>310</ele>
        <time>2021-04-05T15:19:26Z</time>
      </trkpt>
      <trkpt lat="43.48842" lon="1.48813">
        <ele>310.8</ele>
        <time>2021-04-05T15:19:31Z</time>
      </trkpt>
      <trkpt lat="43.48853" lon="1.48802">
        <ele>310.1</ele>
        <time>2021-04-05T15:19:37Z</time>
      </trkpt>
      <trkpt lat="43.48864" lon="1.48781">
        <ele>309.1</ele>
        <time>2021-04-05T15:19:42Z</time>
      </trkpt>
      <trkpt lat="43.48883" lon="1.48749">
        <ele>307.2</ele>
        <time>2021-04-05T15:19:48Z</time>
      </trkpt>
      <trkpt lat="43.48894" lon="1.48722">
        <ele>305.8</ele>
        <time>2021-04-05T15:19:54Z</time>
      </trkpt>
      <trkpt lat="43.48882" lon="1.48705">
        <ele>304.7</ele>
        <time>2021-04-05T15:19:59Z</time>
      </trkpt>
      <trkpt lat="43.48874" lon="1.48694">
        <ele>303.7</ele>
        <time>2021-04-05T15:20:04Z</time>
      </trkpt>
      <trkpt lat="43.48874" lon="1.48697">
        <ele>304.3</ele>
        <time>2021-04-05T15:20:10Z</time>
      </trkpt>
      <trkpt lat="43.48875" lon="1.48696">
        <ele>304.7</ele>
        <time>2021-04-05T15:20:15Z</time>
      </trkpt>
      <trkpt lat="43.48875" lon="1.48695">
        <ele>304.1</ele>
        <time>2021-04-05T15:20:20Z</time>
      </trkpt>
      <trkpt lat="43.48873" lon="1.487">
        <ele>305.3</ele>
        <time>2021-04-05T15:20:26Z</time>
      </trkpt>
      <trkpt lat="43.48873" lon="1.48701">
        <ele>304.9</ele>
        <time>2021-04-05T15:20:32Z</time>
      </trkpt>
      <trkpt lat="43.48873" lon="1.48701">
        <ele>305.1</ele>
        <time>2021-04-05T15:20:37Z</time>
      </trkpt>
      <trkpt lat="43.48873" lon="1.48701">
        <ele>306.2</ele>
        <time>2021-04-05T15:20:42Z</time>
      </trkpt>
      <trkpt lat="43.48873" lon="1.48701">
        <ele>305.9</ele>
        <time>2021-04-05T15:20:48Z</time>
      </trkpt>
      <trkpt lat="43.48873" lon="1.48701">
        <ele>305.4</ele>
        <time>2021-04-05T15:20:54Z</time>
      </trkpt>
      <trkpt lat="43.48873" lon="1.48701">
        <ele>305.3</ele>
        <time>2021-04-05T15:20:59Z</time>
      </trkpt>
      <trkpt lat="43.48873" lon="1.48701">
        <ele>304.9</ele>
        <time>2021-04-05T15:21:05Z</time>
      </trkpt>
      <trkpt lat="43.48873" lon="1.48701">
        <ele>305.4</ele>
        <time>2021-04-05T15:21:11Z</time>
      </trkpt>
      <trkpt lat="43.48873" lon="1.48701">
        <ele>305.8</ele>
        <time>2021-04-05T15:21:17Z</time>
      </trkpt>
      <trkpt lat="43.48873" lon="1.48701">
        <ele>305.5</ele>
        <time>2021-04-05T15:21:22Z</time>
      </trkpt>
      <trkpt lat="43.48873" lon="1.48701">
        <ele>305.9</ele>
        <time>2021-04-05T15:21:28Z</time>
      </trkpt>
      <trkpt lat="43.48873" lon="1.48701">
        <ele>306.5</ele>
        <time>2021-04-05T15:21:33Z</time>
      </trkpt>
      <trkpt lat="43.48873" lon="1.48701">
        <ele>306.5</ele>
        <time>2021-04-05T15:21:38Z</time>
      </trkpt>
      <trkpt lat="43.48873" lon="1.48701">
        <ele>306.9</ele>
        <time>2021-04-05T15:21:44Z</time>
      </trkpt>
      <trkpt lat="43.48873" lon="1.48701">
        <ele>307.2</ele>
        <time>2021-04-05T15:21:49Z</time>
      </trkpt>
      <trkpt lat="43.48873" lon="1.48701">
        <ele>307.1</ele>
        <time>2021-04-05T15:21:54Z</time>
      </trkpt>
      <trkpt lat="43.48873" lon="1.48701">
        <ele>307.1</ele>
        <time>2021-04-05T15:21:59Z</time>
      </trkpt>
      <trkpt lat="43.48873" lon="1.48701">
        <ele>307.3</ele>
        <time>2021-04-05T15:22:05Z</time>
      </trkpt>
      <trkpt lat="43.48873" lon="1.48701">
        <ele>307.8</ele>
        <time>2021-04-05T15:22:10Z</time>
      </trkpt>
      <trkpt lat="43.48873" lon="1.48701">
        <ele>307.1</ele>
        <time>2021-04-05T15:22:16Z</time>
      </trkpt>
      <trkpt lat="43.48873" lon="1.48701">
        <ele>306.6</ele>
        <time>2021-04-05T15:22:22Z</time>
      </trkpt>
      <trkpt lat="43.48873" lon="1.48701">
        <ele>307.3</ele>
        <time>2021-04-05T15:22:27Z</time>
      </trkpt>
      <trkpt lat="43.48873" lon="1.48701">
        <ele>306.7</ele>
        <time>2021-04-05T15:22:33Z</time>
      </trkpt>
      <trkpt lat="43.48873" lon="1.48701">
        <ele>306.8</ele>
        <time>2021-04-05T15:22:39Z</time>
      </trkpt>
      <trkpt lat="43.48873" lon="1.48701">
        <ele>307</ele>
        <time>2021-04-05T15:22:44Z</time>
      </trkpt>
      <trkpt lat="43.48873" lon="1.48701">
        <ele>307.2</ele>
        <time>2021-04-05T15:22:49Z</time>
      </trkpt>
      <trkpt lat="43.48873" lon="1.48701">
        <ele>307</ele>
        <time>2021-04-05T15:22:55Z</time>
      </trkpt>
      <trkpt lat="43.48873" lon="1.48701">
        <ele>306.8</ele>
        <time>2021-04-05T15:23:00Z</time>
      </trkpt>
    </trkseg>
  </trk>
</gpx>